<?xml version="1.0" encoding="UTF-8" standalone="no" ?>
<gpx xmlns="http://www.topografix.com/GPX/1/1" xmlns:xsi="http://www.w3.org/2001/XMLSchema-instance" xsi:schemaLocation="http://www.topografix.com/GPX/1/1 http://www.topografix.com/GPX/1/1/gpx.xsd" version="1.1" creator="VisuGPX - https://www.visugpx.com">
  <metadata>
    <name>Autour de Lacapelle, en passant par Biron</name>
    <desc><![CDATA[Autour de Lacapelle, en passant par Biron]]></desc>
  </metadata>
  <trk>
    <name><![CDATA[04-JAN-15 12:10:35]]></name>
    <trkseg>
      <trkpt lat="44.60033" lon="0.89499">
        <ele>169.33</ele>
        <time>2015-01-04T08:04:16Z</time>
      </trkpt>
      <trkpt lat="44.60038" lon="0.89498">
        <ele>169.81</ele>
        <time>2015-01-04T08:04:32Z</time>
      </trkpt>
      <trkpt lat="44.60043" lon="0.89496">
        <ele>170.29</ele>
        <time>2015-01-04T08:04:36Z</time>
      </trkpt>
      <trkpt lat="44.60054" lon="0.8949">
        <ele>170.77</ele>
        <time>2015-01-04T08:04:50Z</time>
      </trkpt>
      <trkpt lat="44.60055" lon="0.8949">
        <ele>170.29</ele>
        <time>2015-01-04T08:05:16Z</time>
      </trkpt>
      <trkpt lat="44.60054" lon="0.89491">
        <ele>171.25</ele>
        <time>2015-01-04T08:05:23Z</time>
      </trkpt>
      <trkpt lat="44.60059" lon="0.89495">
        <ele>171.73</ele>
        <time>2015-01-04T08:05:35Z</time>
      </trkpt>
      <trkpt lat="44.60057" lon="0.89493">
        <ele>170.77</ele>
        <time>2015-01-04T08:05:48Z</time>
      </trkpt>
      <trkpt lat="44.60056" lon="0.89492">
        <ele>169.33</ele>
        <time>2015-01-04T08:06:05Z</time>
      </trkpt>
      <trkpt lat="44.60056" lon="0.89494">
        <ele>168.85</ele>
        <time>2015-01-04T08:06:23Z</time>
      </trkpt>
      <trkpt lat="44.60057" lon="0.89493">
        <ele>169.81</ele>
        <time>2015-01-04T08:06:45Z</time>
      </trkpt>
      <trkpt lat="44.60058" lon="0.89494">
        <ele>167.89</ele>
        <time>2015-01-04T08:07:07Z</time>
      </trkpt>
      <trkpt lat="44.60056" lon="0.8949">
        <ele>166.45</ele>
        <time>2015-01-04T08:07:33Z</time>
      </trkpt>
      <trkpt lat="44.60056" lon="0.89493">
        <ele>166.93</ele>
        <time>2015-01-04T08:07:59Z</time>
      </trkpt>
      <trkpt lat="44.60058" lon="0.89495">
        <ele>166.45</ele>
        <time>2015-01-04T08:08:20Z</time>
      </trkpt>
      <trkpt lat="44.60058" lon="0.89495">
        <ele>166.45</ele>
        <time>2015-01-04T08:08:38Z</time>
      </trkpt>
      <trkpt lat="44.60059" lon="0.89494">
        <ele>168.37</ele>
        <time>2015-01-04T08:09:03Z</time>
      </trkpt>
      <trkpt lat="44.60056" lon="0.89493">
        <ele>166.45</ele>
        <time>2015-01-04T08:09:30Z</time>
      </trkpt>
      <trkpt lat="44.60057" lon="0.89493">
        <ele>166.45</ele>
        <time>2015-01-04T08:09:58Z</time>
      </trkpt>
      <trkpt lat="44.60057" lon="0.89493">
        <ele>166.45</ele>
        <time>2015-01-04T08:10:03Z</time>
      </trkpt>
      <trkpt lat="44.60062" lon="0.89495">
        <ele>167.89</ele>
        <time>2015-01-04T08:10:12Z</time>
      </trkpt>
      <trkpt lat="44.60069" lon="0.89508">
        <ele>168.37</ele>
        <time>2015-01-04T08:10:18Z</time>
      </trkpt>
      <trkpt lat="44.60066" lon="0.89557">
        <ele>168.85</ele>
        <time>2015-01-04T08:10:35Z</time>
      </trkpt>
      <trkpt lat="44.60065" lon="0.89617">
        <ele>168.85</ele>
        <time>2015-01-04T08:10:50Z</time>
      </trkpt>
      <trkpt lat="44.60055" lon="0.89664">
        <ele>169.81</ele>
        <time>2015-01-04T08:11:01Z</time>
      </trkpt>
      <trkpt lat="44.6004" lon="0.89711">
        <ele>169.81</ele>
        <time>2015-01-04T08:11:15Z</time>
      </trkpt>
      <trkpt lat="44.60037" lon="0.89772">
        <ele>167.89</ele>
        <time>2015-01-04T08:11:31Z</time>
      </trkpt>
      <trkpt lat="44.60037" lon="0.89776">
        <ele>168.37</ele>
        <time>2015-01-04T08:11:32Z</time>
      </trkpt>
      <trkpt lat="44.60018" lon="0.89857">
        <ele>162.12</ele>
        <time>2015-01-04T08:11:42Z</time>
      </trkpt>
      <trkpt lat="44.60019" lon="0.89886">
        <ele>158.75</ele>
        <time>2015-01-04T08:11:46Z</time>
      </trkpt>
      <trkpt lat="44.60023" lon="0.89925">
        <ele>156.83</ele>
        <time>2015-01-04T08:11:51Z</time>
      </trkpt>
      <trkpt lat="44.6002" lon="0.89947">
        <ele>156.35</ele>
        <time>2015-01-04T08:11:54Z</time>
      </trkpt>
      <trkpt lat="44.59988" lon="0.90051">
        <ele>156.35</ele>
        <time>2015-01-04T08:12:11Z</time>
      </trkpt>
      <trkpt lat="44.59956" lon="0.90124">
        <ele>160.2</ele>
        <time>2015-01-04T08:12:28Z</time>
      </trkpt>
      <trkpt lat="44.59964" lon="0.90174">
        <ele>164.52</ele>
        <time>2015-01-04T08:12:41Z</time>
      </trkpt>
      <trkpt lat="44.59982" lon="0.90228">
        <ele>168.85</ele>
        <time>2015-01-04T08:12:57Z</time>
      </trkpt>
      <trkpt lat="44.59993" lon="0.90293">
        <ele>171.73</ele>
        <time>2015-01-04T08:13:15Z</time>
      </trkpt>
      <trkpt lat="44.59997" lon="0.90351">
        <ele>174.62</ele>
        <time>2015-01-04T08:13:31Z</time>
      </trkpt>
      <trkpt lat="44.60002" lon="0.90411">
        <ele>176.06</ele>
        <time>2015-01-04T08:13:46Z</time>
      </trkpt>
      <trkpt lat="44.60007" lon="0.90487">
        <ele>177.98</ele>
        <time>2015-01-04T08:14:05Z</time>
      </trkpt>
      <trkpt lat="44.60007" lon="0.90531">
        <ele>178.94</ele>
        <time>2015-01-04T08:14:19Z</time>
      </trkpt>
      <trkpt lat="44.60006" lon="0.90568">
        <ele>181.83</ele>
        <time>2015-01-04T08:14:31Z</time>
      </trkpt>
      <trkpt lat="44.60006" lon="0.90595">
        <ele>185.19</ele>
        <time>2015-01-04T08:14:42Z</time>
      </trkpt>
      <trkpt lat="44.60004" lon="0.90631">
        <ele>190</ele>
        <time>2015-01-04T08:14:57Z</time>
      </trkpt>
      <trkpt lat="44.59986" lon="0.90664">
        <ele>190.48</ele>
        <time>2015-01-04T08:15:11Z</time>
      </trkpt>
      <trkpt lat="44.59968" lon="0.90712">
        <ele>189.04</ele>
        <time>2015-01-04T08:15:26Z</time>
      </trkpt>
      <trkpt lat="44.59961" lon="0.90757">
        <ele>190.96</ele>
        <time>2015-01-04T08:15:40Z</time>
      </trkpt>
      <trkpt lat="44.59952" lon="0.90821">
        <ele>192.88</ele>
        <time>2015-01-04T08:15:59Z</time>
      </trkpt>
      <trkpt lat="44.59942" lon="0.90886">
        <ele>196.25</ele>
        <time>2015-01-04T08:16:18Z</time>
      </trkpt>
      <trkpt lat="44.59936" lon="0.90914">
        <ele>198.65</ele>
        <time>2015-01-04T08:16:30Z</time>
      </trkpt>
      <trkpt lat="44.59935" lon="0.90918">
        <ele>198.65</ele>
        <time>2015-01-04T08:16:44Z</time>
      </trkpt>
      <trkpt lat="44.59932" lon="0.90922">
        <ele>198.65</ele>
        <time>2015-01-04T08:17:06Z</time>
      </trkpt>
      <trkpt lat="44.59912" lon="0.90942">
        <ele>201.53</ele>
        <time>2015-01-04T08:17:21Z</time>
      </trkpt>
      <trkpt lat="44.59891" lon="0.90968">
        <ele>204.9</ele>
        <time>2015-01-04T08:17:38Z</time>
      </trkpt>
      <trkpt lat="44.59869" lon="0.90994">
        <ele>207.3</ele>
        <time>2015-01-04T08:17:55Z</time>
      </trkpt>
      <trkpt lat="44.5985" lon="0.91017">
        <ele>210.19</ele>
        <time>2015-01-04T08:18:09Z</time>
      </trkpt>
      <trkpt lat="44.59829" lon="0.91052">
        <ele>214.51</ele>
        <time>2015-01-04T08:18:26Z</time>
      </trkpt>
      <trkpt lat="44.59812" lon="0.91088">
        <ele>216.43</ele>
        <time>2015-01-04T08:18:41Z</time>
      </trkpt>
      <trkpt lat="44.59795" lon="0.91125">
        <ele>220.28</ele>
        <time>2015-01-04T08:18:58Z</time>
      </trkpt>
      <trkpt lat="44.59786" lon="0.91143">
        <ele>222.2</ele>
        <time>2015-01-04T08:19:12Z</time>
      </trkpt>
      <trkpt lat="44.59786" lon="0.91144">
        <ele>222.2</ele>
        <time>2015-01-04T08:19:29Z</time>
      </trkpt>
      <trkpt lat="44.59786" lon="0.91145">
        <ele>222.68</ele>
        <time>2015-01-04T08:19:49Z</time>
      </trkpt>
      <trkpt lat="44.59785" lon="0.91145">
        <ele>221.72</ele>
        <time>2015-01-04T08:20:16Z</time>
      </trkpt>
      <trkpt lat="44.59782" lon="0.91156">
        <ele>221.72</ele>
        <time>2015-01-04T08:20:28Z</time>
      </trkpt>
      <trkpt lat="44.59766" lon="0.91213">
        <ele>224.12</ele>
        <time>2015-01-04T08:20:46Z</time>
      </trkpt>
      <trkpt lat="44.59751" lon="0.91282">
        <ele>225.57</ele>
        <time>2015-01-04T08:21:05Z</time>
      </trkpt>
      <trkpt lat="44.59743" lon="0.9134">
        <ele>225.57</ele>
        <time>2015-01-04T08:21:20Z</time>
      </trkpt>
      <trkpt lat="44.59738" lon="0.91347">
        <ele>224.61</ele>
        <time>2015-01-04T08:21:22Z</time>
      </trkpt>
      <trkpt lat="44.59724" lon="0.91425">
        <ele>222.2</ele>
        <time>2015-01-04T08:21:35Z</time>
      </trkpt>
      <trkpt lat="44.59722" lon="0.91448">
        <ele>222.2</ele>
        <time>2015-01-04T08:21:39Z</time>
      </trkpt>
      <trkpt lat="44.59732" lon="0.9145">
        <ele>222.2</ele>
        <time>2015-01-04T08:21:44Z</time>
      </trkpt>
      <trkpt lat="44.5975" lon="0.91401">
        <ele>222.68</ele>
        <time>2015-01-04T08:21:57Z</time>
      </trkpt>
      <trkpt lat="44.59764" lon="0.91364">
        <ele>223.64</ele>
        <time>2015-01-04T08:22:09Z</time>
      </trkpt>
      <trkpt lat="44.59771" lon="0.91347">
        <ele>226.05</ele>
        <time>2015-01-04T08:22:15Z</time>
      </trkpt>
      <trkpt lat="44.59776" lon="0.91353">
        <ele>227.97</ele>
        <time>2015-01-04T08:22:20Z</time>
      </trkpt>
      <trkpt lat="44.59783" lon="0.91397">
        <ele>227.97</ele>
        <time>2015-01-04T08:22:34Z</time>
      </trkpt>
      <trkpt lat="44.59789" lon="0.91437">
        <ele>226.53</ele>
        <time>2015-01-04T08:22:48Z</time>
      </trkpt>
      <trkpt lat="44.59797" lon="0.91483">
        <ele>220.76</ele>
        <time>2015-01-04T08:23:00Z</time>
      </trkpt>
      <trkpt lat="44.59818" lon="0.91544">
        <ele>218.36</ele>
        <time>2015-01-04T08:23:15Z</time>
      </trkpt>
      <trkpt lat="44.59838" lon="0.91581">
        <ele>219.8</ele>
        <time>2015-01-04T08:23:27Z</time>
      </trkpt>
      <trkpt lat="44.59847" lon="0.91608">
        <ele>219.32</ele>
        <time>2015-01-04T08:23:40Z</time>
      </trkpt>
      <trkpt lat="44.59863" lon="0.9164">
        <ele>215.95</ele>
        <time>2015-01-04T08:23:49Z</time>
      </trkpt>
      <trkpt lat="44.59866" lon="0.91644">
        <ele>215.47</ele>
        <time>2015-01-04T08:23:50Z</time>
      </trkpt>
      <trkpt lat="44.59872" lon="0.91677">
        <ele>213.07</ele>
        <time>2015-01-04T08:23:55Z</time>
      </trkpt>
      <trkpt lat="44.59878" lon="0.91699">
        <ele>211.63</ele>
        <time>2015-01-04T08:23:58Z</time>
      </trkpt>
      <trkpt lat="44.59881" lon="0.91712">
        <ele>210.67</ele>
        <time>2015-01-04T08:24:00Z</time>
      </trkpt>
      <trkpt lat="44.59889" lon="0.91739">
        <ele>209.7</ele>
        <time>2015-01-04T08:24:05Z</time>
      </trkpt>
      <trkpt lat="44.59905" lon="0.91801">
        <ele>211.63</ele>
        <time>2015-01-04T08:24:19Z</time>
      </trkpt>
      <trkpt lat="44.59906" lon="0.91804">
        <ele>212.11</ele>
        <time>2015-01-04T08:24:20Z</time>
      </trkpt>
      <trkpt lat="44.5991" lon="0.91808">
        <ele>212.11</ele>
        <time>2015-01-04T08:24:23Z</time>
      </trkpt>
      <trkpt lat="44.5992" lon="0.91803">
        <ele>212.11</ele>
        <time>2015-01-04T08:24:29Z</time>
      </trkpt>
      <trkpt lat="44.59952" lon="0.91784">
        <ele>210.67</ele>
        <time>2015-01-04T08:24:41Z</time>
      </trkpt>
      <trkpt lat="44.59981" lon="0.9176">
        <ele>207.3</ele>
        <time>2015-01-04T08:24:51Z</time>
      </trkpt>
      <trkpt lat="44.60017" lon="0.9175">
        <ele>207.3</ele>
        <time>2015-01-04T08:25:01Z</time>
      </trkpt>
      <trkpt lat="44.6005" lon="0.91734">
        <ele>209.22</ele>
        <time>2015-01-04T08:25:12Z</time>
      </trkpt>
      <trkpt lat="44.60076" lon="0.91735">
        <ele>208.26</ele>
        <time>2015-01-04T08:25:19Z</time>
      </trkpt>
      <trkpt lat="44.60082" lon="0.9175">
        <ele>206.82</ele>
        <time>2015-01-04T08:25:23Z</time>
      </trkpt>
      <trkpt lat="44.6008" lon="0.91774">
        <ele>205.86</ele>
        <time>2015-01-04T08:25:27Z</time>
      </trkpt>
      <trkpt lat="44.60095" lon="0.9182">
        <ele>206.82</ele>
        <time>2015-01-04T08:25:38Z</time>
      </trkpt>
      <trkpt lat="44.60098" lon="0.91822">
        <ele>206.82</ele>
        <time>2015-01-04T08:25:39Z</time>
      </trkpt>
      <trkpt lat="44.60134" lon="0.91833">
        <ele>207.78</ele>
        <time>2015-01-04T08:25:52Z</time>
      </trkpt>
      <trkpt lat="44.60161" lon="0.91862">
        <ele>208.26</ele>
        <time>2015-01-04T08:26:05Z</time>
      </trkpt>
      <trkpt lat="44.60185" lon="0.91905">
        <ele>209.7</ele>
        <time>2015-01-04T08:26:19Z</time>
      </trkpt>
      <trkpt lat="44.60215" lon="0.91961">
        <ele>211.15</ele>
        <time>2015-01-04T08:26:35Z</time>
      </trkpt>
      <trkpt lat="44.60242" lon="0.91981">
        <ele>215.95</ele>
        <time>2015-01-04T08:26:48Z</time>
      </trkpt>
      <trkpt lat="44.6025" lon="0.91984">
        <ele>216.43</ele>
        <time>2015-01-04T08:26:51Z</time>
      </trkpt>
      <trkpt lat="44.60273" lon="0.91969">
        <ele>216.43</ele>
        <time>2015-01-04T08:26:59Z</time>
      </trkpt>
      <trkpt lat="44.60312" lon="0.91951">
        <ele>217.88</ele>
        <time>2015-01-04T08:27:12Z</time>
      </trkpt>
      <trkpt lat="44.60352" lon="0.91968">
        <ele>219.32</ele>
        <time>2015-01-04T08:27:27Z</time>
      </trkpt>
      <trkpt lat="44.60368" lon="0.91997">
        <ele>222.68</ele>
        <time>2015-01-04T08:27:40Z</time>
      </trkpt>
      <trkpt lat="44.60371" lon="0.92001">
        <ele>223.64</ele>
        <time>2015-01-04T08:27:42Z</time>
      </trkpt>
      <trkpt lat="44.60392" lon="0.92011">
        <ele>227.49</ele>
        <time>2015-01-04T08:27:54Z</time>
      </trkpt>
      <trkpt lat="44.60411" lon="0.92024">
        <ele>229.41</ele>
        <time>2015-01-04T08:28:05Z</time>
      </trkpt>
      <trkpt lat="44.60418" lon="0.92026">
        <ele>230.37</ele>
        <time>2015-01-04T08:28:11Z</time>
      </trkpt>
      <trkpt lat="44.60426" lon="0.92026">
        <ele>229.41</ele>
        <time>2015-01-04T08:28:30Z</time>
      </trkpt>
      <trkpt lat="44.6043" lon="0.92029">
        <ele>232.78</ele>
        <time>2015-01-04T08:29:01Z</time>
      </trkpt>
      <trkpt lat="44.60431" lon="0.92031">
        <ele>232.78</ele>
        <time>2015-01-04T08:29:04Z</time>
      </trkpt>
      <trkpt lat="44.60441" lon="0.92026">
        <ele>229.89</ele>
        <time>2015-01-04T08:29:17Z</time>
      </trkpt>
      <trkpt lat="44.60444" lon="0.92025">
        <ele>227.97</ele>
        <time>2015-01-04T08:29:39Z</time>
      </trkpt>
      <trkpt lat="44.60442" lon="0.9203">
        <ele>229.41</ele>
        <time>2015-01-04T08:30:06Z</time>
      </trkpt>
      <trkpt lat="44.60448" lon="0.92029">
        <ele>230.37</ele>
        <time>2015-01-04T08:30:29Z</time>
      </trkpt>
      <trkpt lat="44.60449" lon="0.92028">
        <ele>236.62</ele>
        <time>2015-01-04T08:30:55Z</time>
      </trkpt>
      <trkpt lat="44.60455" lon="0.92025">
        <ele>233.74</ele>
        <time>2015-01-04T08:31:16Z</time>
      </trkpt>
      <trkpt lat="44.60477" lon="0.92009">
        <ele>230.37</ele>
        <time>2015-01-04T08:31:26Z</time>
      </trkpt>
      <trkpt lat="44.60505" lon="0.91998">
        <ele>227.97</ele>
        <time>2015-01-04T08:31:38Z</time>
      </trkpt>
      <trkpt lat="44.60519" lon="0.91985">
        <ele>226.53</ele>
        <time>2015-01-04T08:31:44Z</time>
      </trkpt>
      <trkpt lat="44.60529" lon="0.9198">
        <ele>225.57</ele>
        <time>2015-01-04T08:31:48Z</time>
      </trkpt>
      <trkpt lat="44.60543" lon="0.91975">
        <ele>225.09</ele>
        <time>2015-01-04T08:31:52Z</time>
      </trkpt>
      <trkpt lat="44.60559" lon="0.91969">
        <ele>225.09</ele>
        <time>2015-01-04T08:31:56Z</time>
      </trkpt>
      <trkpt lat="44.606" lon="0.91953">
        <ele>224.12</ele>
        <time>2015-01-04T08:32:07Z</time>
      </trkpt>
      <trkpt lat="44.60618" lon="0.91943">
        <ele>220.28</ele>
        <time>2015-01-04T08:32:13Z</time>
      </trkpt>
      <trkpt lat="44.60628" lon="0.91956">
        <ele>215.95</ele>
        <time>2015-01-04T08:32:24Z</time>
      </trkpt>
      <trkpt lat="44.60627" lon="0.91959">
        <ele>215.95</ele>
        <time>2015-01-04T08:32:25Z</time>
      </trkpt>
      <trkpt lat="44.60635" lon="0.92014">
        <ele>211.63</ele>
        <time>2015-01-04T08:32:37Z</time>
      </trkpt>
      <trkpt lat="44.60637" lon="0.92026">
        <ele>211.15</ele>
        <time>2015-01-04T08:32:39Z</time>
      </trkpt>
      <trkpt lat="44.60638" lon="0.92052">
        <ele>209.7</ele>
        <time>2015-01-04T08:32:43Z</time>
      </trkpt>
      <trkpt lat="44.60629" lon="0.92102">
        <ele>211.15</ele>
        <time>2015-01-04T08:32:54Z</time>
      </trkpt>
      <trkpt lat="44.60619" lon="0.92152">
        <ele>215.47</ele>
        <time>2015-01-04T08:33:08Z</time>
      </trkpt>
      <trkpt lat="44.60606" lon="0.92203">
        <ele>222.68</ele>
        <time>2015-01-04T08:33:21Z</time>
      </trkpt>
      <trkpt lat="44.60596" lon="0.9225">
        <ele>228.93</ele>
        <time>2015-01-04T08:33:33Z</time>
      </trkpt>
      <trkpt lat="44.60587" lon="0.92292">
        <ele>234.22</ele>
        <time>2015-01-04T08:33:45Z</time>
      </trkpt>
      <trkpt lat="44.60576" lon="0.9234">
        <ele>238.06</ele>
        <time>2015-01-04T08:33:59Z</time>
      </trkpt>
      <trkpt lat="44.60568" lon="0.92386">
        <ele>237.58</ele>
        <time>2015-01-04T08:34:12Z</time>
      </trkpt>
      <trkpt lat="44.60557" lon="0.9244">
        <ele>240.95</ele>
        <time>2015-01-04T08:34:26Z</time>
      </trkpt>
      <trkpt lat="44.60551" lon="0.92465">
        <ele>242.39</ele>
        <time>2015-01-04T08:34:33Z</time>
      </trkpt>
      <trkpt lat="44.6054" lon="0.92518">
        <ele>244.31</ele>
        <time>2015-01-04T08:34:47Z</time>
      </trkpt>
      <trkpt lat="44.60529" lon="0.92574">
        <ele>247.68</ele>
        <time>2015-01-04T08:35:01Z</time>
      </trkpt>
      <trkpt lat="44.60519" lon="0.92627">
        <ele>252</ele>
        <time>2015-01-04T08:35:15Z</time>
      </trkpt>
      <trkpt lat="44.60516" lon="0.92645">
        <ele>255.85</ele>
        <time>2015-01-04T08:35:22Z</time>
      </trkpt>
      <trkpt lat="44.60525" lon="0.92646">
        <ele>252.96</ele>
        <time>2015-01-04T08:35:34Z</time>
      </trkpt>
      <trkpt lat="44.60521" lon="0.92646">
        <ele>251.52</ele>
        <time>2015-01-04T08:35:54Z</time>
      </trkpt>
      <trkpt lat="44.6052" lon="0.92645">
        <ele>247.2</ele>
        <time>2015-01-04T08:36:18Z</time>
      </trkpt>
      <trkpt lat="44.60522" lon="0.92649">
        <ele>245.75</ele>
        <time>2015-01-04T08:36:45Z</time>
      </trkpt>
      <trkpt lat="44.60537" lon="0.9263">
        <ele>244.31</ele>
        <time>2015-01-04T08:36:53Z</time>
      </trkpt>
      <trkpt lat="44.60555" lon="0.92629">
        <ele>244.31</ele>
        <time>2015-01-04T08:36:58Z</time>
      </trkpt>
      <trkpt lat="44.60579" lon="0.92649">
        <ele>240.95</ele>
        <time>2015-01-04T08:37:04Z</time>
      </trkpt>
      <trkpt lat="44.60615" lon="0.92657">
        <ele>230.37</ele>
        <time>2015-01-04T08:37:11Z</time>
      </trkpt>
      <trkpt lat="44.60627" lon="0.92661">
        <ele>227.49</ele>
        <time>2015-01-04T08:37:13Z</time>
      </trkpt>
      <trkpt lat="44.60651" lon="0.92675">
        <ele>222.68</ele>
        <time>2015-01-04T08:37:17Z</time>
      </trkpt>
      <trkpt lat="44.60663" lon="0.92681">
        <ele>221.24</ele>
        <time>2015-01-04T08:37:19Z</time>
      </trkpt>
      <trkpt lat="44.60686" lon="0.92688">
        <ele>217.88</ele>
        <time>2015-01-04T08:37:24Z</time>
      </trkpt>
      <trkpt lat="44.60703" lon="0.92695">
        <ele>217.88</ele>
        <time>2015-01-04T08:37:28Z</time>
      </trkpt>
      <trkpt lat="44.60732" lon="0.92705">
        <ele>216.43</ele>
        <time>2015-01-04T08:37:33Z</time>
      </trkpt>
      <trkpt lat="44.60746" lon="0.92708">
        <ele>215.95</ele>
        <time>2015-01-04T08:37:40Z</time>
      </trkpt>
      <trkpt lat="44.60746" lon="0.92704">
        <ele>227.49</ele>
        <time>2015-01-04T08:38:02Z</time>
      </trkpt>
      <trkpt lat="44.60746" lon="0.92703">
        <ele>227.97</ele>
        <time>2015-01-04T08:38:04Z</time>
      </trkpt>
      <trkpt lat="44.60751" lon="0.92694">
        <ele>228.45</ele>
        <time>2015-01-04T08:38:09Z</time>
      </trkpt>
      <trkpt lat="44.60782" lon="0.92652">
        <ele>226.53</ele>
        <time>2015-01-04T08:38:20Z</time>
      </trkpt>
      <trkpt lat="44.60798" lon="0.92628">
        <ele>224.61</ele>
        <time>2015-01-04T08:38:25Z</time>
      </trkpt>
      <trkpt lat="44.60813" lon="0.92606">
        <ele>222.68</ele>
        <time>2015-01-04T08:38:29Z</time>
      </trkpt>
      <trkpt lat="44.60839" lon="0.92583">
        <ele>219.8</ele>
        <time>2015-01-04T08:38:33Z</time>
      </trkpt>
      <trkpt lat="44.60852" lon="0.92573">
        <ele>217.88</ele>
        <time>2015-01-04T08:38:35Z</time>
      </trkpt>
      <trkpt lat="44.60902" lon="0.9252">
        <ele>210.19</ele>
        <time>2015-01-04T08:38:44Z</time>
      </trkpt>
      <trkpt lat="44.60962" lon="0.92477">
        <ele>205.38</ele>
        <time>2015-01-04T08:38:54Z</time>
      </trkpt>
      <trkpt lat="44.61011" lon="0.92422">
        <ele>202.01</ele>
        <time>2015-01-04T08:39:04Z</time>
      </trkpt>
      <trkpt lat="44.61025" lon="0.92406">
        <ele>201.05</ele>
        <time>2015-01-04T08:39:07Z</time>
      </trkpt>
      <trkpt lat="44.61045" lon="0.92384">
        <ele>199.61</ele>
        <time>2015-01-04T08:39:12Z</time>
      </trkpt>
      <trkpt lat="44.61073" lon="0.92371">
        <ele>197.21</ele>
        <time>2015-01-04T08:39:20Z</time>
      </trkpt>
      <trkpt lat="44.61098" lon="0.9237">
        <ele>197.21</ele>
        <time>2015-01-04T08:39:25Z</time>
      </trkpt>
      <trkpt lat="44.61151" lon="0.92395">
        <ele>197.69</ele>
        <time>2015-01-04T08:39:36Z</time>
      </trkpt>
      <trkpt lat="44.61178" lon="0.924">
        <ele>195.77</ele>
        <time>2015-01-04T08:39:43Z</time>
      </trkpt>
      <trkpt lat="44.61188" lon="0.92398">
        <ele>193.36</ele>
        <time>2015-01-04T08:39:45Z</time>
      </trkpt>
      <trkpt lat="44.61208" lon="0.92384">
        <ele>190</ele>
        <time>2015-01-04T08:39:49Z</time>
      </trkpt>
      <trkpt lat="44.61228" lon="0.92375">
        <ele>188.08</ele>
        <time>2015-01-04T08:39:53Z</time>
      </trkpt>
      <trkpt lat="44.61239" lon="0.92385">
        <ele>186.63</ele>
        <time>2015-01-04T08:40:03Z</time>
      </trkpt>
      <trkpt lat="44.61238" lon="0.92385">
        <ele>186.15</ele>
        <time>2015-01-04T08:40:06Z</time>
      </trkpt>
      <trkpt lat="44.61236" lon="0.92378">
        <ele>186.15</ele>
        <time>2015-01-04T08:40:10Z</time>
      </trkpt>
      <trkpt lat="44.61209" lon="0.92303">
        <ele>183.75</ele>
        <time>2015-01-04T08:40:26Z</time>
      </trkpt>
      <trkpt lat="44.61183" lon="0.92232">
        <ele>184.23</ele>
        <time>2015-01-04T08:40:40Z</time>
      </trkpt>
      <trkpt lat="44.61174" lon="0.92208">
        <ele>184.23</ele>
        <time>2015-01-04T08:40:44Z</time>
      </trkpt>
      <trkpt lat="44.61172" lon="0.92177">
        <ele>185.19</ele>
        <time>2015-01-04T08:40:49Z</time>
      </trkpt>
      <trkpt lat="44.61198" lon="0.92105">
        <ele>184.23</ele>
        <time>2015-01-04T08:41:01Z</time>
      </trkpt>
      <trkpt lat="44.61207" lon="0.9209">
        <ele>183.75</ele>
        <time>2015-01-04T08:41:04Z</time>
      </trkpt>
      <trkpt lat="44.61228" lon="0.9206">
        <ele>182.31</ele>
        <time>2015-01-04T08:41:11Z</time>
      </trkpt>
      <trkpt lat="44.61241" lon="0.92038">
        <ele>180.87</ele>
        <time>2015-01-04T08:41:15Z</time>
      </trkpt>
      <trkpt lat="44.61284" lon="0.91945">
        <ele>180.38</ele>
        <time>2015-01-04T08:41:28Z</time>
      </trkpt>
      <trkpt lat="44.61287" lon="0.91938">
        <ele>180.38</ele>
        <time>2015-01-04T08:41:29Z</time>
      </trkpt>
      <trkpt lat="44.61294" lon="0.91895">
        <ele>180.87</ele>
        <time>2015-01-04T08:41:35Z</time>
      </trkpt>
      <trkpt lat="44.61294" lon="0.9188">
        <ele>180.87</ele>
        <time>2015-01-04T08:41:37Z</time>
      </trkpt>
      <trkpt lat="44.61284" lon="0.91748">
        <ele>179.42</ele>
        <time>2015-01-04T08:41:54Z</time>
      </trkpt>
      <trkpt lat="44.61284" lon="0.91729">
        <ele>178.94</ele>
        <time>2015-01-04T08:41:57Z</time>
      </trkpt>
      <trkpt lat="44.61293" lon="0.91727">
        <ele>178.46</ele>
        <time>2015-01-04T08:42:01Z</time>
      </trkpt>
      <trkpt lat="44.6134" lon="0.91773">
        <ele>179.9</ele>
        <time>2015-01-04T08:42:19Z</time>
      </trkpt>
      <trkpt lat="44.61373" lon="0.91802">
        <ele>179.9</ele>
        <time>2015-01-04T08:42:32Z</time>
      </trkpt>
      <trkpt lat="44.61421" lon="0.91849">
        <ele>179.42</ele>
        <time>2015-01-04T08:42:49Z</time>
      </trkpt>
      <trkpt lat="44.61463" lon="0.91907">
        <ele>180.87</ele>
        <time>2015-01-04T08:43:06Z</time>
      </trkpt>
      <trkpt lat="44.61512" lon="0.91939">
        <ele>186.63</ele>
        <time>2015-01-04T08:43:21Z</time>
      </trkpt>
      <trkpt lat="44.61553" lon="0.91941">
        <ele>190.48</ele>
        <time>2015-01-04T08:43:33Z</time>
      </trkpt>
      <trkpt lat="44.61572" lon="0.91936">
        <ele>191.92</ele>
        <time>2015-01-04T08:43:40Z</time>
      </trkpt>
      <trkpt lat="44.61607" lon="0.91922">
        <ele>193.36</ele>
        <time>2015-01-04T08:43:53Z</time>
      </trkpt>
      <trkpt lat="44.61648" lon="0.9191">
        <ele>195.77</ele>
        <time>2015-01-04T08:44:06Z</time>
      </trkpt>
      <trkpt lat="44.61683" lon="0.91898">
        <ele>197.69</ele>
        <time>2015-01-04T08:44:18Z</time>
      </trkpt>
      <trkpt lat="44.61703" lon="0.91893">
        <ele>199.61</ele>
        <time>2015-01-04T08:44:27Z</time>
      </trkpt>
      <trkpt lat="44.61735" lon="0.91871">
        <ele>197.21</ele>
        <time>2015-01-04T08:44:39Z</time>
      </trkpt>
      <trkpt lat="44.61767" lon="0.91858">
        <ele>196.25</ele>
        <time>2015-01-04T08:44:50Z</time>
      </trkpt>
      <trkpt lat="44.61794" lon="0.91851">
        <ele>193.84</ele>
        <time>2015-01-04T08:45:01Z</time>
      </trkpt>
      <trkpt lat="44.61829" lon="0.91837">
        <ele>195.77</ele>
        <time>2015-01-04T08:45:15Z</time>
      </trkpt>
      <trkpt lat="44.61861" lon="0.91817">
        <ele>194.32</ele>
        <time>2015-01-04T08:45:29Z</time>
      </trkpt>
      <trkpt lat="44.61893" lon="0.91803">
        <ele>193.36</ele>
        <time>2015-01-04T08:45:42Z</time>
      </trkpt>
      <trkpt lat="44.6193" lon="0.91794">
        <ele>196.73</ele>
        <time>2015-01-04T08:45:56Z</time>
      </trkpt>
      <trkpt lat="44.61944" lon="0.91793">
        <ele>197.69</ele>
        <time>2015-01-04T08:46:04Z</time>
      </trkpt>
      <trkpt lat="44.61948" lon="0.9179">
        <ele>199.61</ele>
        <time>2015-01-04T08:46:08Z</time>
      </trkpt>
      <trkpt lat="44.61955" lon="0.91785">
        <ele>201.53</ele>
        <time>2015-01-04T08:46:15Z</time>
      </trkpt>
      <trkpt lat="44.61938" lon="0.91766">
        <ele>200.57</ele>
        <time>2015-01-04T08:46:29Z</time>
      </trkpt>
      <trkpt lat="44.61947" lon="0.91746">
        <ele>200.09</ele>
        <time>2015-01-04T08:46:39Z</time>
      </trkpt>
      <trkpt lat="44.61953" lon="0.91736">
        <ele>200.09</ele>
        <time>2015-01-04T08:46:43Z</time>
      </trkpt>
      <trkpt lat="44.61959" lon="0.91727">
        <ele>199.61</ele>
        <time>2015-01-04T08:46:47Z</time>
      </trkpt>
      <trkpt lat="44.61964" lon="0.91718">
        <ele>198.65</ele>
        <time>2015-01-04T08:46:52Z</time>
      </trkpt>
      <trkpt lat="44.61982" lon="0.91704">
        <ele>195.77</ele>
        <time>2015-01-04T08:47:07Z</time>
      </trkpt>
      <trkpt lat="44.62001" lon="0.91688">
        <ele>197.21</ele>
        <time>2015-01-04T08:47:19Z</time>
      </trkpt>
      <trkpt lat="44.62009" lon="0.91679">
        <ele>196.73</ele>
        <time>2015-01-04T08:47:24Z</time>
      </trkpt>
      <trkpt lat="44.6203" lon="0.91672">
        <ele>197.69</ele>
        <time>2015-01-04T08:47:37Z</time>
      </trkpt>
      <trkpt lat="44.62044" lon="0.91668">
        <ele>198.65</ele>
        <time>2015-01-04T08:47:50Z</time>
      </trkpt>
      <trkpt lat="44.62053" lon="0.9167">
        <ele>197.21</ele>
        <time>2015-01-04T08:47:56Z</time>
      </trkpt>
      <trkpt lat="44.62057" lon="0.91674">
        <ele>196.25</ele>
        <time>2015-01-04T08:47:59Z</time>
      </trkpt>
      <trkpt lat="44.62074" lon="0.91679">
        <ele>196.73</ele>
        <time>2015-01-04T08:48:10Z</time>
      </trkpt>
      <trkpt lat="44.62095" lon="0.91677">
        <ele>200.57</ele>
        <time>2015-01-04T08:48:21Z</time>
      </trkpt>
      <trkpt lat="44.62124" lon="0.91678">
        <ele>199.61</ele>
        <time>2015-01-04T08:48:35Z</time>
      </trkpt>
      <trkpt lat="44.62145" lon="0.91668">
        <ele>203.46</ele>
        <time>2015-01-04T08:48:46Z</time>
      </trkpt>
      <trkpt lat="44.62168" lon="0.91647">
        <ele>211.63</ele>
        <time>2015-01-04T08:48:58Z</time>
      </trkpt>
      <trkpt lat="44.62173" lon="0.91642">
        <ele>212.11</ele>
        <time>2015-01-04T08:49:08Z</time>
      </trkpt>
      <trkpt lat="44.62175" lon="0.91641">
        <ele>213.55</ele>
        <time>2015-01-04T08:49:26Z</time>
      </trkpt>
      <trkpt lat="44.62177" lon="0.91641">
        <ele>217.4</ele>
        <time>2015-01-04T08:49:51Z</time>
      </trkpt>
      <trkpt lat="44.62174" lon="0.91639">
        <ele>218.36</ele>
        <time>2015-01-04T08:50:18Z</time>
      </trkpt>
      <trkpt lat="44.62175" lon="0.91639">
        <ele>216.91</ele>
        <time>2015-01-04T08:50:46Z</time>
      </trkpt>
      <trkpt lat="44.62176" lon="0.91638">
        <ele>215.47</ele>
        <time>2015-01-04T08:51:19Z</time>
      </trkpt>
      <trkpt lat="44.62173" lon="0.91638">
        <ele>220.28</ele>
        <time>2015-01-04T08:51:44Z</time>
      </trkpt>
      <trkpt lat="44.62174" lon="0.91632">
        <ele>220.28</ele>
        <time>2015-01-04T08:51:48Z</time>
      </trkpt>
      <trkpt lat="44.6218" lon="0.91596">
        <ele>218.84</ele>
        <time>2015-01-04T08:52:02Z</time>
      </trkpt>
      <trkpt lat="44.62172" lon="0.91587">
        <ele>219.8</ele>
        <time>2015-01-04T08:52:09Z</time>
      </trkpt>
      <trkpt lat="44.6216" lon="0.91584">
        <ele>225.57</ele>
        <time>2015-01-04T08:52:17Z</time>
      </trkpt>
      <trkpt lat="44.62147" lon="0.9158">
        <ele>229.89</ele>
        <time>2015-01-04T08:52:24Z</time>
      </trkpt>
      <trkpt lat="44.62126" lon="0.91571">
        <ele>233.74</ele>
        <time>2015-01-04T08:52:36Z</time>
      </trkpt>
      <trkpt lat="44.62107" lon="0.91557">
        <ele>233.26</ele>
        <time>2015-01-04T08:52:48Z</time>
      </trkpt>
      <trkpt lat="44.62103" lon="0.91555">
        <ele>230.85</ele>
        <time>2015-01-04T08:53:01Z</time>
      </trkpt>
      <trkpt lat="44.621" lon="0.91549">
        <ele>228.45</ele>
        <time>2015-01-04T08:53:28Z</time>
      </trkpt>
      <trkpt lat="44.62097" lon="0.91551">
        <ele>230.37</ele>
        <time>2015-01-04T08:53:55Z</time>
      </trkpt>
      <trkpt lat="44.62099" lon="0.91555">
        <ele>233.26</ele>
        <time>2015-01-04T08:54:15Z</time>
      </trkpt>
      <trkpt lat="44.621" lon="0.91553">
        <ele>234.22</ele>
        <time>2015-01-04T08:54:33Z</time>
      </trkpt>
      <trkpt lat="44.62101" lon="0.9155">
        <ele>233.74</ele>
        <time>2015-01-04T08:54:52Z</time>
      </trkpt>
      <trkpt lat="44.62098" lon="0.91553">
        <ele>234.22</ele>
        <time>2015-01-04T08:55:09Z</time>
      </trkpt>
      <trkpt lat="44.621" lon="0.91556">
        <ele>235.66</ele>
        <time>2015-01-04T08:55:25Z</time>
      </trkpt>
      <trkpt lat="44.62107" lon="0.91557">
        <ele>234.7</ele>
        <time>2015-01-04T08:55:37Z</time>
      </trkpt>
      <trkpt lat="44.62127" lon="0.91568">
        <ele>233.26</ele>
        <time>2015-01-04T08:55:49Z</time>
      </trkpt>
      <trkpt lat="44.62158" lon="0.91576">
        <ele>229.41</ele>
        <time>2015-01-04T08:56:00Z</time>
      </trkpt>
      <trkpt lat="44.62179" lon="0.91596">
        <ele>223.64</ele>
        <time>2015-01-04T08:56:10Z</time>
      </trkpt>
      <trkpt lat="44.62178" lon="0.91631">
        <ele>219.32</ele>
        <time>2015-01-04T08:56:20Z</time>
      </trkpt>
      <trkpt lat="44.62177" lon="0.91641">
        <ele>217.88</ele>
        <time>2015-01-04T08:56:30Z</time>
      </trkpt>
      <trkpt lat="44.62178" lon="0.91646">
        <ele>217.88</ele>
        <time>2015-01-04T08:56:48Z</time>
      </trkpt>
      <trkpt lat="44.62176" lon="0.9165">
        <ele>218.36</ele>
        <time>2015-01-04T08:57:12Z</time>
      </trkpt>
      <trkpt lat="44.62175" lon="0.91653">
        <ele>218.84</ele>
        <time>2015-01-04T08:57:37Z</time>
      </trkpt>
      <trkpt lat="44.62167" lon="0.91658">
        <ele>218.36</ele>
        <time>2015-01-04T08:57:43Z</time>
      </trkpt>
      <trkpt lat="44.62155" lon="0.91668">
        <ele>217.88</ele>
        <time>2015-01-04T08:57:57Z</time>
      </trkpt>
      <trkpt lat="44.62156" lon="0.91667">
        <ele>217.4</ele>
        <time>2015-01-04T08:58:22Z</time>
      </trkpt>
      <trkpt lat="44.62153" lon="0.91667">
        <ele>219.32</ele>
        <time>2015-01-04T08:58:44Z</time>
      </trkpt>
      <trkpt lat="44.62153" lon="0.91664">
        <ele>218.36</ele>
        <time>2015-01-04T08:59:26Z</time>
      </trkpt>
      <trkpt lat="44.62149" lon="0.91666">
        <ele>219.32</ele>
        <time>2015-01-04T08:59:48Z</time>
      </trkpt>
      <trkpt lat="44.62149" lon="0.91668">
        <ele>216.43</ele>
        <time>2015-01-04T09:00:00Z</time>
      </trkpt>
      <trkpt lat="44.62149" lon="0.91669">
        <ele>215.47</ele>
        <time>2015-01-04T09:00:13Z</time>
      </trkpt>
      <trkpt lat="44.62156" lon="0.91677">
        <ele>217.88</ele>
        <time>2015-01-04T09:00:25Z</time>
      </trkpt>
      <trkpt lat="44.62157" lon="0.91679">
        <ele>221.72</ele>
        <time>2015-01-04T09:00:48Z</time>
      </trkpt>
      <trkpt lat="44.62156" lon="0.91678">
        <ele>221.72</ele>
        <time>2015-01-04T09:01:24Z</time>
      </trkpt>
      <trkpt lat="44.6216" lon="0.91681">
        <ele>223.16</ele>
        <time>2015-01-04T09:01:37Z</time>
      </trkpt>
      <trkpt lat="44.62178" lon="0.91679">
        <ele>222.68</ele>
        <time>2015-01-04T09:01:48Z</time>
      </trkpt>
      <trkpt lat="44.62207" lon="0.91686">
        <ele>221.24</ele>
        <time>2015-01-04T09:02:03Z</time>
      </trkpt>
      <trkpt lat="44.62216" lon="0.91695">
        <ele>220.76</ele>
        <time>2015-01-04T09:02:08Z</time>
      </trkpt>
      <trkpt lat="44.62225" lon="0.91703">
        <ele>222.68</ele>
        <time>2015-01-04T09:02:14Z</time>
      </trkpt>
      <trkpt lat="44.62233" lon="0.91711">
        <ele>223.64</ele>
        <time>2015-01-04T09:02:18Z</time>
      </trkpt>
      <trkpt lat="44.62253" lon="0.91729">
        <ele>224.61</ele>
        <time>2015-01-04T09:02:26Z</time>
      </trkpt>
      <trkpt lat="44.62272" lon="0.9174">
        <ele>226.05</ele>
        <time>2015-01-04T09:02:33Z</time>
      </trkpt>
      <trkpt lat="44.62283" lon="0.91745">
        <ele>227.97</ele>
        <time>2015-01-04T09:02:38Z</time>
      </trkpt>
      <trkpt lat="44.623" lon="0.91763">
        <ele>231.33</ele>
        <time>2015-01-04T09:02:48Z</time>
      </trkpt>
      <trkpt lat="44.62312" lon="0.9178">
        <ele>233.26</ele>
        <time>2015-01-04T09:02:55Z</time>
      </trkpt>
      <trkpt lat="44.62321" lon="0.91822">
        <ele>234.7</ele>
        <time>2015-01-04T09:03:07Z</time>
      </trkpt>
      <trkpt lat="44.62336" lon="0.91853">
        <ele>236.62</ele>
        <time>2015-01-04T09:03:18Z</time>
      </trkpt>
      <trkpt lat="44.62357" lon="0.91886">
        <ele>239.02</ele>
        <time>2015-01-04T09:03:29Z</time>
      </trkpt>
      <trkpt lat="44.62368" lon="0.91902">
        <ele>239.51</ele>
        <time>2015-01-04T09:03:36Z</time>
      </trkpt>
      <trkpt lat="44.62376" lon="0.91904">
        <ele>238.54</ele>
        <time>2015-01-04T09:03:39Z</time>
      </trkpt>
      <trkpt lat="44.62382" lon="0.91896">
        <ele>237.58</ele>
        <time>2015-01-04T09:03:43Z</time>
      </trkpt>
      <trkpt lat="44.62395" lon="0.91875">
        <ele>234.22</ele>
        <time>2015-01-04T09:03:55Z</time>
      </trkpt>
      <trkpt lat="44.62409" lon="0.91838">
        <ele>235.18</ele>
        <time>2015-01-04T09:04:09Z</time>
      </trkpt>
      <trkpt lat="44.62413" lon="0.91822">
        <ele>237.1</ele>
        <time>2015-01-04T09:04:15Z</time>
      </trkpt>
      <trkpt lat="44.62417" lon="0.9181">
        <ele>238.06</ele>
        <time>2015-01-04T09:04:19Z</time>
      </trkpt>
      <trkpt lat="44.62419" lon="0.91801">
        <ele>238.54</ele>
        <time>2015-01-04T09:04:23Z</time>
      </trkpt>
      <trkpt lat="44.62424" lon="0.91763">
        <ele>238.54</ele>
        <time>2015-01-04T09:04:36Z</time>
      </trkpt>
      <trkpt lat="44.62426" lon="0.91747">
        <ele>238.06</ele>
        <time>2015-01-04T09:04:41Z</time>
      </trkpt>
      <trkpt lat="44.62427" lon="0.91737">
        <ele>236.62</ele>
        <time>2015-01-04T09:04:43Z</time>
      </trkpt>
      <trkpt lat="44.62431" lon="0.91711">
        <ele>233.26</ele>
        <time>2015-01-04T09:04:49Z</time>
      </trkpt>
      <trkpt lat="44.62432" lon="0.91685">
        <ele>231.81</ele>
        <time>2015-01-04T09:04:53Z</time>
      </trkpt>
      <trkpt lat="44.62437" lon="0.91625">
        <ele>227.97</ele>
        <time>2015-01-04T09:05:04Z</time>
      </trkpt>
      <trkpt lat="44.62452" lon="0.91582">
        <ele>233.26</ele>
        <time>2015-01-04T09:05:18Z</time>
      </trkpt>
      <trkpt lat="44.62455" lon="0.91573">
        <ele>235.66</ele>
        <time>2015-01-04T09:05:21Z</time>
      </trkpt>
      <trkpt lat="44.6246" lon="0.91561">
        <ele>237.58</ele>
        <time>2015-01-04T09:05:25Z</time>
      </trkpt>
      <trkpt lat="44.62484" lon="0.91525">
        <ele>239.99</ele>
        <time>2015-01-04T09:05:37Z</time>
      </trkpt>
      <trkpt lat="44.62485" lon="0.91522">
        <ele>239.99</ele>
        <time>2015-01-04T09:05:38Z</time>
      </trkpt>
      <trkpt lat="44.62484" lon="0.91494">
        <ele>240.95</ele>
        <time>2015-01-04T09:05:50Z</time>
      </trkpt>
      <trkpt lat="44.62481" lon="0.91475">
        <ele>240.95</ele>
        <time>2015-01-04T09:06:06Z</time>
      </trkpt>
      <trkpt lat="44.6248" lon="0.91472">
        <ele>242.87</ele>
        <time>2015-01-04T09:06:31Z</time>
      </trkpt>
      <trkpt lat="44.62478" lon="0.91474">
        <ele>241.91</ele>
        <time>2015-01-04T09:06:57Z</time>
      </trkpt>
      <trkpt lat="44.62478" lon="0.91472">
        <ele>242.39</ele>
        <time>2015-01-04T09:07:26Z</time>
      </trkpt>
      <trkpt lat="44.62479" lon="0.91472">
        <ele>244.31</ele>
        <time>2015-01-04T09:07:51Z</time>
      </trkpt>
      <trkpt lat="44.62481" lon="0.91471">
        <ele>243.35</ele>
        <time>2015-01-04T09:08:17Z</time>
      </trkpt>
      <trkpt lat="44.62481" lon="0.91469">
        <ele>243.35</ele>
        <time>2015-01-04T09:08:39Z</time>
      </trkpt>
      <trkpt lat="44.62479" lon="0.91473">
        <ele>244.31</ele>
        <time>2015-01-04T09:09:05Z</time>
      </trkpt>
      <trkpt lat="44.6248" lon="0.91475">
        <ele>242.39</ele>
        <time>2015-01-04T09:09:34Z</time>
      </trkpt>
      <trkpt lat="44.6247" lon="0.9144">
        <ele>240.47</ele>
        <time>2015-01-04T09:09:45Z</time>
      </trkpt>
      <trkpt lat="44.62448" lon="0.91383">
        <ele>237.1</ele>
        <time>2015-01-04T09:09:59Z</time>
      </trkpt>
      <trkpt lat="44.6241" lon="0.91293">
        <ele>230.85</ele>
        <time>2015-01-04T09:10:13Z</time>
      </trkpt>
      <trkpt lat="44.62369" lon="0.91205">
        <ele>230.37</ele>
        <time>2015-01-04T09:10:26Z</time>
      </trkpt>
      <trkpt lat="44.62316" lon="0.91123">
        <ele>231.81</ele>
        <time>2015-01-04T09:10:41Z</time>
      </trkpt>
      <trkpt lat="44.623" lon="0.91099">
        <ele>231.81</ele>
        <time>2015-01-04T09:10:46Z</time>
      </trkpt>
      <trkpt lat="44.62264" lon="0.91042">
        <ele>233.74</ele>
        <time>2015-01-04T09:10:59Z</time>
      </trkpt>
      <trkpt lat="44.6225" lon="0.91038">
        <ele>234.7</ele>
        <time>2015-01-04T09:11:06Z</time>
      </trkpt>
      <trkpt lat="44.62248" lon="0.91036">
        <ele>234.7</ele>
        <time>2015-01-04T09:11:07Z</time>
      </trkpt>
      <trkpt lat="44.62226" lon="0.91018">
        <ele>234.22</ele>
        <time>2015-01-04T09:11:15Z</time>
      </trkpt>
      <trkpt lat="44.62204" lon="0.90988">
        <ele>234.22</ele>
        <time>2015-01-04T09:11:24Z</time>
      </trkpt>
      <trkpt lat="44.62188" lon="0.90991">
        <ele>235.18</ele>
        <time>2015-01-04T09:11:30Z</time>
      </trkpt>
      <trkpt lat="44.62178" lon="0.91002">
        <ele>236.62</ele>
        <time>2015-01-04T09:11:35Z</time>
      </trkpt>
      <trkpt lat="44.62168" lon="0.91002">
        <ele>236.14</ele>
        <time>2015-01-04T09:11:39Z</time>
      </trkpt>
      <trkpt lat="44.62161" lon="0.90997">
        <ele>236.14</ele>
        <time>2015-01-04T09:11:42Z</time>
      </trkpt>
      <trkpt lat="44.62149" lon="0.91001">
        <ele>237.58</ele>
        <time>2015-01-04T09:11:46Z</time>
      </trkpt>
      <trkpt lat="44.62127" lon="0.91035">
        <ele>239.02</ele>
        <time>2015-01-04T09:11:55Z</time>
      </trkpt>
      <trkpt lat="44.62111" lon="0.91064">
        <ele>237.1</ele>
        <time>2015-01-04T09:12:03Z</time>
      </trkpt>
      <trkpt lat="44.62107" lon="0.91065">
        <ele>236.14</ele>
        <time>2015-01-04T09:12:04Z</time>
      </trkpt>
      <trkpt lat="44.62099" lon="0.91067">
        <ele>235.18</ele>
        <time>2015-01-04T09:12:06Z</time>
      </trkpt>
      <trkpt lat="44.62067" lon="0.91068">
        <ele>231.33</ele>
        <time>2015-01-04T09:12:13Z</time>
      </trkpt>
      <trkpt lat="44.6206" lon="0.91074">
        <ele>230.37</ele>
        <time>2015-01-04T09:12:15Z</time>
      </trkpt>
      <trkpt lat="44.62053" lon="0.91083">
        <ele>229.41</ele>
        <time>2015-01-04T09:12:17Z</time>
      </trkpt>
      <trkpt lat="44.62045" lon="0.911">
        <ele>227.97</ele>
        <time>2015-01-04T09:12:20Z</time>
      </trkpt>
      <trkpt lat="44.61997" lon="0.91151">
        <ele>221.72</ele>
        <time>2015-01-04T09:12:29Z</time>
      </trkpt>
      <trkpt lat="44.61983" lon="0.91199">
        <ele>215.95</ele>
        <time>2015-01-04T09:12:36Z</time>
      </trkpt>
      <trkpt lat="44.6197" lon="0.91257">
        <ele>211.63</ele>
        <time>2015-01-04T09:12:45Z</time>
      </trkpt>
      <trkpt lat="44.61943" lon="0.91273">
        <ele>210.19</ele>
        <time>2015-01-04T09:12:52Z</time>
      </trkpt>
      <trkpt lat="44.61889" lon="0.91288">
        <ele>209.22</ele>
        <time>2015-01-04T09:13:02Z</time>
      </trkpt>
      <trkpt lat="44.61869" lon="0.91294">
        <ele>208.74</ele>
        <time>2015-01-04T09:13:06Z</time>
      </trkpt>
      <trkpt lat="44.61835" lon="0.91302">
        <ele>209.22</ele>
        <time>2015-01-04T09:13:12Z</time>
      </trkpt>
      <trkpt lat="44.61825" lon="0.91305">
        <ele>209.22</ele>
        <time>2015-01-04T09:13:14Z</time>
      </trkpt>
      <trkpt lat="44.61805" lon="0.91298">
        <ele>208.26</ele>
        <time>2015-01-04T09:13:19Z</time>
      </trkpt>
      <trkpt lat="44.61778" lon="0.91275">
        <ele>207.78</ele>
        <time>2015-01-04T09:13:33Z</time>
      </trkpt>
      <trkpt lat="44.61754" lon="0.91247">
        <ele>204.42</ele>
        <time>2015-01-04T09:13:45Z</time>
      </trkpt>
      <trkpt lat="44.61729" lon="0.91217">
        <ele>202.98</ele>
        <time>2015-01-04T09:13:55Z</time>
      </trkpt>
      <trkpt lat="44.61693" lon="0.91175">
        <ele>199.13</ele>
        <time>2015-01-04T09:14:07Z</time>
      </trkpt>
      <trkpt lat="44.61625" lon="0.91142">
        <ele>194.8</ele>
        <time>2015-01-04T09:14:23Z</time>
      </trkpt>
      <trkpt lat="44.61589" lon="0.91131">
        <ele>195.28</ele>
        <time>2015-01-04T09:14:33Z</time>
      </trkpt>
      <trkpt lat="44.61587" lon="0.91118">
        <ele>196.73</ele>
        <time>2015-01-04T09:14:43Z</time>
      </trkpt>
      <trkpt lat="44.61604" lon="0.91103">
        <ele>201.05</ele>
        <time>2015-01-04T09:14:57Z</time>
      </trkpt>
      <trkpt lat="44.61624" lon="0.91085">
        <ele>204.42</ele>
        <time>2015-01-04T09:15:09Z</time>
      </trkpt>
      <trkpt lat="44.61646" lon="0.91058">
        <ele>204.9</ele>
        <time>2015-01-04T09:15:25Z</time>
      </trkpt>
      <trkpt lat="44.61651" lon="0.91022">
        <ele>207.78</ele>
        <time>2015-01-04T09:15:39Z</time>
      </trkpt>
      <trkpt lat="44.61653" lon="0.91004">
        <ele>210.67</ele>
        <time>2015-01-04T09:15:47Z</time>
      </trkpt>
      <trkpt lat="44.61654" lon="0.90984">
        <ele>212.59</ele>
        <time>2015-01-04T09:15:59Z</time>
      </trkpt>
      <trkpt lat="44.61655" lon="0.90982">
        <ele>212.59</ele>
        <time>2015-01-04T09:16:00Z</time>
      </trkpt>
      <trkpt lat="44.61656" lon="0.9097">
        <ele>214.03</ele>
        <time>2015-01-04T09:16:07Z</time>
      </trkpt>
      <trkpt lat="44.61653" lon="0.90946">
        <ele>216.43</ele>
        <time>2015-01-04T09:16:21Z</time>
      </trkpt>
      <trkpt lat="44.61654" lon="0.90934">
        <ele>218.36</ele>
        <time>2015-01-04T09:16:28Z</time>
      </trkpt>
      <trkpt lat="44.61667" lon="0.90917">
        <ele>221.24</ele>
        <time>2015-01-04T09:16:40Z</time>
      </trkpt>
      <trkpt lat="44.61686" lon="0.90889">
        <ele>223.64</ele>
        <time>2015-01-04T09:16:58Z</time>
      </trkpt>
      <trkpt lat="44.61692" lon="0.90882">
        <ele>225.57</ele>
        <time>2015-01-04T09:17:04Z</time>
      </trkpt>
      <trkpt lat="44.617" lon="0.90881">
        <ele>227.01</ele>
        <time>2015-01-04T09:17:12Z</time>
      </trkpt>
      <trkpt lat="44.61707" lon="0.9088">
        <ele>226.53</ele>
        <time>2015-01-04T09:17:16Z</time>
      </trkpt>
      <trkpt lat="44.61731" lon="0.90869">
        <ele>229.89</ele>
        <time>2015-01-04T09:17:29Z</time>
      </trkpt>
      <trkpt lat="44.61735" lon="0.90864">
        <ele>230.85</ele>
        <time>2015-01-04T09:17:32Z</time>
      </trkpt>
      <trkpt lat="44.61741" lon="0.90843">
        <ele>234.7</ele>
        <time>2015-01-04T09:17:41Z</time>
      </trkpt>
      <trkpt lat="44.61736" lon="0.90817">
        <ele>238.54</ele>
        <time>2015-01-04T09:17:51Z</time>
      </trkpt>
      <trkpt lat="44.61741" lon="0.90779">
        <ele>242.87</ele>
        <time>2015-01-04T09:18:06Z</time>
      </trkpt>
      <trkpt lat="44.61743" lon="0.90764">
        <ele>243.35</ele>
        <time>2015-01-04T09:18:11Z</time>
      </trkpt>
      <trkpt lat="44.61735" lon="0.90741">
        <ele>243.35</ele>
        <time>2015-01-04T09:18:24Z</time>
      </trkpt>
      <trkpt lat="44.61734" lon="0.90735">
        <ele>244.31</ele>
        <time>2015-01-04T09:18:35Z</time>
      </trkpt>
      <trkpt lat="44.61743" lon="0.90734">
        <ele>243.83</ele>
        <time>2015-01-04T09:18:48Z</time>
      </trkpt>
      <trkpt lat="44.61745" lon="0.90736">
        <ele>243.35</ele>
        <time>2015-01-04T09:19:08Z</time>
      </trkpt>
      <trkpt lat="44.61745" lon="0.90734">
        <ele>240.47</ele>
        <time>2015-01-04T09:19:27Z</time>
      </trkpt>
      <trkpt lat="44.61747" lon="0.90731">
        <ele>240.47</ele>
        <time>2015-01-04T09:19:51Z</time>
      </trkpt>
      <trkpt lat="44.61746" lon="0.90731">
        <ele>240.47</ele>
        <time>2015-01-04T09:20:05Z</time>
      </trkpt>
      <trkpt lat="44.61745" lon="0.9073">
        <ele>241.43</ele>
        <time>2015-01-04T09:20:29Z</time>
      </trkpt>
      <trkpt lat="44.61745" lon="0.90732">
        <ele>238.54</ele>
        <time>2015-01-04T09:20:44Z</time>
      </trkpt>
      <trkpt lat="44.61747" lon="0.9073">
        <ele>239.02</ele>
        <time>2015-01-04T09:21:11Z</time>
      </trkpt>
      <trkpt lat="44.61751" lon="0.90731">
        <ele>239.51</ele>
        <time>2015-01-04T09:21:39Z</time>
      </trkpt>
      <trkpt lat="44.6175" lon="0.90732">
        <ele>240.47</ele>
        <time>2015-01-04T09:22:00Z</time>
      </trkpt>
      <trkpt lat="44.61748" lon="0.90731">
        <ele>240.95</ele>
        <time>2015-01-04T09:22:11Z</time>
      </trkpt>
      <trkpt lat="44.61753" lon="0.90714">
        <ele>240.47</ele>
        <time>2015-01-04T09:22:19Z</time>
      </trkpt>
      <trkpt lat="44.61756" lon="0.90709">
        <ele>240.47</ele>
        <time>2015-01-04T09:22:21Z</time>
      </trkpt>
      <trkpt lat="44.61778" lon="0.90692">
        <ele>240.95</ele>
        <time>2015-01-04T09:22:30Z</time>
      </trkpt>
      <trkpt lat="44.61788" lon="0.90671">
        <ele>239.51</ele>
        <time>2015-01-04T09:22:34Z</time>
      </trkpt>
      <trkpt lat="44.61796" lon="0.9064">
        <ele>239.02</ele>
        <time>2015-01-04T09:22:39Z</time>
      </trkpt>
      <trkpt lat="44.61804" lon="0.90618">
        <ele>238.06</ele>
        <time>2015-01-04T09:22:43Z</time>
      </trkpt>
      <trkpt lat="44.61808" lon="0.90606">
        <ele>237.58</ele>
        <time>2015-01-04T09:22:45Z</time>
      </trkpt>
      <trkpt lat="44.61816" lon="0.90572">
        <ele>236.14</ele>
        <time>2015-01-04T09:22:50Z</time>
      </trkpt>
      <trkpt lat="44.61825" lon="0.90543">
        <ele>234.22</ele>
        <time>2015-01-04T09:22:54Z</time>
      </trkpt>
      <trkpt lat="44.61831" lon="0.9049">
        <ele>231.33</ele>
        <time>2015-01-04T09:23:02Z</time>
      </trkpt>
      <trkpt lat="44.61834" lon="0.90472">
        <ele>228.93</ele>
        <time>2015-01-04T09:23:05Z</time>
      </trkpt>
      <trkpt lat="44.61843" lon="0.9045">
        <ele>225.09</ele>
        <time>2015-01-04T09:23:12Z</time>
      </trkpt>
      <trkpt lat="44.61849" lon="0.90442">
        <ele>223.16</ele>
        <time>2015-01-04T09:23:24Z</time>
      </trkpt>
      <trkpt lat="44.61851" lon="0.90436">
        <ele>223.16</ele>
        <time>2015-01-04T09:23:35Z</time>
      </trkpt>
      <trkpt lat="44.61849" lon="0.90407">
        <ele>222.68</ele>
        <time>2015-01-04T09:23:45Z</time>
      </trkpt>
      <trkpt lat="44.61846" lon="0.90396">
        <ele>224.12</ele>
        <time>2015-01-04T09:23:47Z</time>
      </trkpt>
      <trkpt lat="44.6184" lon="0.90373">
        <ele>225.57</ele>
        <time>2015-01-04T09:23:51Z</time>
      </trkpt>
      <trkpt lat="44.61831" lon="0.9035">
        <ele>227.01</ele>
        <time>2015-01-04T09:23:55Z</time>
      </trkpt>
      <trkpt lat="44.61816" lon="0.90301">
        <ele>228.93</ele>
        <time>2015-01-04T09:24:06Z</time>
      </trkpt>
      <trkpt lat="44.61817" lon="0.90295">
        <ele>227.01</ele>
        <time>2015-01-04T09:24:17Z</time>
      </trkpt>
      <trkpt lat="44.61819" lon="0.90293">
        <ele>227.49</ele>
        <time>2015-01-04T09:24:49Z</time>
      </trkpt>
      <trkpt lat="44.61821" lon="0.90296">
        <ele>224.12</ele>
        <time>2015-01-04T09:25:14Z</time>
      </trkpt>
      <trkpt lat="44.6183" lon="0.9032">
        <ele>222.68</ele>
        <time>2015-01-04T09:25:31Z</time>
      </trkpt>
      <trkpt lat="44.61834" lon="0.90336">
        <ele>225.57</ele>
        <time>2015-01-04T09:25:44Z</time>
      </trkpt>
      <trkpt lat="44.61835" lon="0.90334">
        <ele>225.09</ele>
        <time>2015-01-04T09:26:02Z</time>
      </trkpt>
      <trkpt lat="44.6184" lon="0.90337">
        <ele>222.68</ele>
        <time>2015-01-04T09:26:35Z</time>
      </trkpt>
      <trkpt lat="44.61843" lon="0.90339">
        <ele>221.72</ele>
        <time>2015-01-04T09:27:01Z</time>
      </trkpt>
      <trkpt lat="44.61838" lon="0.9034">
        <ele>220.76</ele>
        <time>2015-01-04T09:27:28Z</time>
      </trkpt>
      <trkpt lat="44.61834" lon="0.90341">
        <ele>226.05</ele>
        <time>2015-01-04T09:27:52Z</time>
      </trkpt>
      <trkpt lat="44.61836" lon="0.90343">
        <ele>224.61</ele>
        <time>2015-01-04T09:28:08Z</time>
      </trkpt>
      <trkpt lat="44.61835" lon="0.90341">
        <ele>224.12</ele>
        <time>2015-01-04T09:28:11Z</time>
      </trkpt>
      <trkpt lat="44.61834" lon="0.90338">
        <ele>224.12</ele>
        <time>2015-01-04T09:28:26Z</time>
      </trkpt>
      <trkpt lat="44.61834" lon="0.90338">
        <ele>226.05</ele>
        <time>2015-01-04T09:28:39Z</time>
      </trkpt>
      <trkpt lat="44.61821" lon="0.90302">
        <ele>224.61</ele>
        <time>2015-01-04T09:28:51Z</time>
      </trkpt>
      <trkpt lat="44.61818" lon="0.90292">
        <ele>224.12</ele>
        <time>2015-01-04T09:28:53Z</time>
      </trkpt>
      <trkpt lat="44.61805" lon="0.90227">
        <ele>222.68</ele>
        <time>2015-01-04T09:29:03Z</time>
      </trkpt>
      <trkpt lat="44.6181" lon="0.90205">
        <ele>221.72</ele>
        <time>2015-01-04T09:29:08Z</time>
      </trkpt>
      <trkpt lat="44.61812" lon="0.902">
        <ele>217.88</ele>
        <time>2015-01-04T09:29:20Z</time>
      </trkpt>
      <trkpt lat="44.61813" lon="0.90198">
        <ele>217.4</ele>
        <time>2015-01-04T09:29:37Z</time>
      </trkpt>
      <trkpt lat="44.61791" lon="0.90157">
        <ele>221.24</ele>
        <time>2015-01-04T09:29:50Z</time>
      </trkpt>
      <trkpt lat="44.61788" lon="0.90153">
        <ele>221.24</ele>
        <time>2015-01-04T09:29:51Z</time>
      </trkpt>
      <trkpt lat="44.61757" lon="0.90082">
        <ele>220.76</ele>
        <time>2015-01-04T09:30:04Z</time>
      </trkpt>
      <trkpt lat="44.61751" lon="0.90065">
        <ele>219.32</ele>
        <time>2015-01-04T09:30:07Z</time>
      </trkpt>
      <trkpt lat="44.61741" lon="0.90031">
        <ele>216.43</ele>
        <time>2015-01-04T09:30:14Z</time>
      </trkpt>
      <trkpt lat="44.6174" lon="0.90029">
        <ele>214.51</ele>
        <time>2015-01-04T09:30:31Z</time>
      </trkpt>
      <trkpt lat="44.61747" lon="0.90033">
        <ele>209.7</ele>
        <time>2015-01-04T09:30:45Z</time>
      </trkpt>
      <trkpt lat="44.61753" lon="0.90033">
        <ele>207.78</ele>
        <time>2015-01-04T09:31:16Z</time>
      </trkpt>
      <trkpt lat="44.61748" lon="0.90032">
        <ele>211.15</ele>
        <time>2015-01-04T09:31:39Z</time>
      </trkpt>
      <trkpt lat="44.61744" lon="0.90032">
        <ele>207.3</ele>
        <time>2015-01-04T09:31:58Z</time>
      </trkpt>
      <trkpt lat="44.61731" lon="0.90004">
        <ele>207.3</ele>
        <time>2015-01-04T09:32:10Z</time>
      </trkpt>
      <trkpt lat="44.61708" lon="0.89951">
        <ele>205.86</ele>
        <time>2015-01-04T09:32:21Z</time>
      </trkpt>
      <trkpt lat="44.61699" lon="0.89932">
        <ele>205.38</ele>
        <time>2015-01-04T09:32:25Z</time>
      </trkpt>
      <trkpt lat="44.61694" lon="0.89921">
        <ele>205.38</ele>
        <time>2015-01-04T09:32:27Z</time>
      </trkpt>
      <trkpt lat="44.61673" lon="0.89859">
        <ele>204.42</ele>
        <time>2015-01-04T09:32:37Z</time>
      </trkpt>
      <trkpt lat="44.61651" lon="0.89811">
        <ele>203.94</ele>
        <time>2015-01-04T09:32:45Z</time>
      </trkpt>
      <trkpt lat="44.61642" lon="0.89794">
        <ele>203.46</ele>
        <time>2015-01-04T09:32:48Z</time>
      </trkpt>
      <trkpt lat="44.61629" lon="0.8977">
        <ele>203.46</ele>
        <time>2015-01-04T09:32:52Z</time>
      </trkpt>
      <trkpt lat="44.6161" lon="0.8972">
        <ele>202.01</ele>
        <time>2015-01-04T09:33:00Z</time>
      </trkpt>
      <trkpt lat="44.61599" lon="0.89678">
        <ele>200.57</ele>
        <time>2015-01-04T09:33:06Z</time>
      </trkpt>
      <trkpt lat="44.61595" lon="0.89663">
        <ele>200.09</ele>
        <time>2015-01-04T09:33:08Z</time>
      </trkpt>
      <trkpt lat="44.61592" lon="0.89628">
        <ele>199.61</ele>
        <time>2015-01-04T09:33:12Z</time>
      </trkpt>
      <trkpt lat="44.61592" lon="0.89611">
        <ele>199.13</ele>
        <time>2015-01-04T09:33:14Z</time>
      </trkpt>
      <trkpt lat="44.61596" lon="0.89568">
        <ele>198.65</ele>
        <time>2015-01-04T09:33:19Z</time>
      </trkpt>
      <trkpt lat="44.61603" lon="0.89534">
        <ele>198.17</ele>
        <time>2015-01-04T09:33:23Z</time>
      </trkpt>
      <trkpt lat="44.61608" lon="0.89517">
        <ele>198.17</ele>
        <time>2015-01-04T09:33:25Z</time>
      </trkpt>
      <trkpt lat="44.61615" lon="0.89405">
        <ele>196.73</ele>
        <time>2015-01-04T09:33:36Z</time>
      </trkpt>
      <trkpt lat="44.61606" lon="0.89349">
        <ele>196.25</ele>
        <time>2015-01-04T09:33:41Z</time>
      </trkpt>
      <trkpt lat="44.61592" lon="0.89308">
        <ele>195.28</ele>
        <time>2015-01-04T09:33:45Z</time>
      </trkpt>
      <trkpt lat="44.61559" lon="0.89173">
        <ele>194.32</ele>
        <time>2015-01-04T09:33:59Z</time>
      </trkpt>
      <trkpt lat="44.61553" lon="0.89136">
        <ele>195.77</ele>
        <time>2015-01-04T09:34:04Z</time>
      </trkpt>
      <trkpt lat="44.61562" lon="0.89104">
        <ele>194.8</ele>
        <time>2015-01-04T09:34:12Z</time>
      </trkpt>
      <trkpt lat="44.61565" lon="0.89103">
        <ele>194.8</ele>
        <time>2015-01-04T09:34:13Z</time>
      </trkpt>
      <trkpt lat="44.61587" lon="0.89094">
        <ele>197.21</ele>
        <time>2015-01-04T09:34:25Z</time>
      </trkpt>
      <trkpt lat="44.61616" lon="0.89091">
        <ele>203.46</ele>
        <time>2015-01-04T09:34:40Z</time>
      </trkpt>
      <trkpt lat="44.61642" lon="0.89093">
        <ele>209.7</ele>
        <time>2015-01-04T09:34:54Z</time>
      </trkpt>
      <trkpt lat="44.61663" lon="0.89094">
        <ele>214.51</ele>
        <time>2015-01-04T09:35:06Z</time>
      </trkpt>
      <trkpt lat="44.61672" lon="0.89063">
        <ele>211.15</ele>
        <time>2015-01-04T09:35:19Z</time>
      </trkpt>
      <trkpt lat="44.61677" lon="0.89042">
        <ele>208.74</ele>
        <time>2015-01-04T09:35:28Z</time>
      </trkpt>
      <trkpt lat="44.61679" lon="0.89043">
        <ele>207.3</ele>
        <time>2015-01-04T09:35:48Z</time>
      </trkpt>
      <trkpt lat="44.61678" lon="0.89035">
        <ele>206.82</ele>
        <time>2015-01-04T09:36:11Z</time>
      </trkpt>
      <trkpt lat="44.61681" lon="0.88982">
        <ele>203.94</ele>
        <time>2015-01-04T09:36:21Z</time>
      </trkpt>
      <trkpt lat="44.61698" lon="0.88939">
        <ele>204.42</ele>
        <time>2015-01-04T09:36:31Z</time>
      </trkpt>
      <trkpt lat="44.61704" lon="0.88929">
        <ele>203.46</ele>
        <time>2015-01-04T09:36:33Z</time>
      </trkpt>
      <trkpt lat="44.61725" lon="0.88918">
        <ele>203.94</ele>
        <time>2015-01-04T09:36:40Z</time>
      </trkpt>
      <trkpt lat="44.61762" lon="0.88965">
        <ele>205.38</ele>
        <time>2015-01-04T09:36:55Z</time>
      </trkpt>
      <trkpt lat="44.61789" lon="0.89">
        <ele>206.34</ele>
        <time>2015-01-04T09:37:08Z</time>
      </trkpt>
      <trkpt lat="44.61799" lon="0.89009">
        <ele>207.3</ele>
        <time>2015-01-04T09:37:17Z</time>
      </trkpt>
      <trkpt lat="44.61815" lon="0.89032">
        <ele>208.26</ele>
        <time>2015-01-04T09:37:27Z</time>
      </trkpt>
      <trkpt lat="44.61838" lon="0.89021">
        <ele>209.7</ele>
        <time>2015-01-04T09:37:36Z</time>
      </trkpt>
      <trkpt lat="44.61856" lon="0.89043">
        <ele>211.63</ele>
        <time>2015-01-04T09:37:46Z</time>
      </trkpt>
      <trkpt lat="44.61868" lon="0.89064">
        <ele>213.07</ele>
        <time>2015-01-04T09:37:53Z</time>
      </trkpt>
      <trkpt lat="44.61884" lon="0.89072">
        <ele>212.59</ele>
        <time>2015-01-04T09:38:02Z</time>
      </trkpt>
      <trkpt lat="44.61923" lon="0.89034">
        <ele>216.91</ele>
        <time>2015-01-04T09:38:19Z</time>
      </trkpt>
      <trkpt lat="44.61957" lon="0.89001">
        <ele>220.76</ele>
        <time>2015-01-04T09:38:34Z</time>
      </trkpt>
      <trkpt lat="44.61969" lon="0.88987">
        <ele>222.68</ele>
        <time>2015-01-04T09:38:42Z</time>
      </trkpt>
      <trkpt lat="44.61968" lon="0.8898">
        <ele>224.61</ele>
        <time>2015-01-04T09:38:53Z</time>
      </trkpt>
      <trkpt lat="44.61968" lon="0.88981">
        <ele>222.68</ele>
        <time>2015-01-04T09:39:15Z</time>
      </trkpt>
      <trkpt lat="44.61969" lon="0.88979">
        <ele>223.64</ele>
        <time>2015-01-04T09:39:41Z</time>
      </trkpt>
      <trkpt lat="44.61968" lon="0.88978">
        <ele>221.72</ele>
        <time>2015-01-04T09:40:17Z</time>
      </trkpt>
      <trkpt lat="44.61968" lon="0.88981">
        <ele>219.8</ele>
        <time>2015-01-04T09:40:54Z</time>
      </trkpt>
      <trkpt lat="44.61967" lon="0.8898">
        <ele>222.2</ele>
        <time>2015-01-04T09:41:27Z</time>
      </trkpt>
      <trkpt lat="44.61967" lon="0.88981">
        <ele>225.57</ele>
        <time>2015-01-04T09:42:02Z</time>
      </trkpt>
      <trkpt lat="44.61968" lon="0.88981">
        <ele>224.12</ele>
        <time>2015-01-04T09:42:15Z</time>
      </trkpt>
      <trkpt lat="44.6197" lon="0.88982">
        <ele>224.12</ele>
        <time>2015-01-04T09:42:20Z</time>
      </trkpt>
      <trkpt lat="44.61983" lon="0.89011">
        <ele>223.16</ele>
        <time>2015-01-04T09:42:33Z</time>
      </trkpt>
      <trkpt lat="44.61989" lon="0.8904">
        <ele>223.16</ele>
        <time>2015-01-04T09:42:44Z</time>
      </trkpt>
      <trkpt lat="44.61983" lon="0.89095">
        <ele>223.64</ele>
        <time>2015-01-04T09:42:55Z</time>
      </trkpt>
      <trkpt lat="44.61974" lon="0.89151">
        <ele>221.72</ele>
        <time>2015-01-04T09:43:02Z</time>
      </trkpt>
      <trkpt lat="44.61969" lon="0.89178">
        <ele>220.76</ele>
        <time>2015-01-04T09:43:06Z</time>
      </trkpt>
      <trkpt lat="44.6196" lon="0.89232">
        <ele>217.88</ele>
        <time>2015-01-04T09:43:16Z</time>
      </trkpt>
      <trkpt lat="44.61959" lon="0.89249">
        <ele>217.4</ele>
        <time>2015-01-04T09:43:20Z</time>
      </trkpt>
      <trkpt lat="44.61962" lon="0.89257">
        <ele>216.91</ele>
        <time>2015-01-04T09:43:22Z</time>
      </trkpt>
      <trkpt lat="44.61981" lon="0.89259">
        <ele>217.4</ele>
        <time>2015-01-04T09:43:27Z</time>
      </trkpt>
      <trkpt lat="44.62012" lon="0.89246">
        <ele>216.91</ele>
        <time>2015-01-04T09:43:35Z</time>
      </trkpt>
      <trkpt lat="44.62032" lon="0.89224">
        <ele>215.47</ele>
        <time>2015-01-04T09:43:40Z</time>
      </trkpt>
      <trkpt lat="44.62042" lon="0.89204">
        <ele>213.07</ele>
        <time>2015-01-04T09:43:45Z</time>
      </trkpt>
      <trkpt lat="44.62047" lon="0.89189">
        <ele>210.19</ele>
        <time>2015-01-04T09:43:50Z</time>
      </trkpt>
      <trkpt lat="44.62055" lon="0.89169">
        <ele>207.3</ele>
        <time>2015-01-04T09:43:54Z</time>
      </trkpt>
      <trkpt lat="44.62058" lon="0.89141">
        <ele>203.94</ele>
        <time>2015-01-04T09:43:58Z</time>
      </trkpt>
      <trkpt lat="44.6207" lon="0.89099">
        <ele>200.09</ele>
        <time>2015-01-04T09:44:06Z</time>
      </trkpt>
      <trkpt lat="44.62085" lon="0.89066">
        <ele>199.13</ele>
        <time>2015-01-04T09:44:14Z</time>
      </trkpt>
      <trkpt lat="44.62101" lon="0.89046">
        <ele>197.69</ele>
        <time>2015-01-04T09:44:18Z</time>
      </trkpt>
      <trkpt lat="44.62131" lon="0.88997">
        <ele>195.28</ele>
        <time>2015-01-04T09:44:26Z</time>
      </trkpt>
      <trkpt lat="44.62147" lon="0.88961">
        <ele>192.88</ele>
        <time>2015-01-04T09:44:32Z</time>
      </trkpt>
      <trkpt lat="44.62155" lon="0.88928">
        <ele>190.48</ele>
        <time>2015-01-04T09:44:36Z</time>
      </trkpt>
      <trkpt lat="44.62159" lon="0.88895">
        <ele>188.56</ele>
        <time>2015-01-04T09:44:40Z</time>
      </trkpt>
      <trkpt lat="44.62163" lon="0.88868">
        <ele>188.56</ele>
        <time>2015-01-04T09:44:44Z</time>
      </trkpt>
      <trkpt lat="44.62175" lon="0.88827">
        <ele>190.48</ele>
        <time>2015-01-04T09:44:50Z</time>
      </trkpt>
      <trkpt lat="44.62199" lon="0.88783">
        <ele>192.4</ele>
        <time>2015-01-04T09:45:00Z</time>
      </trkpt>
      <trkpt lat="44.62203" lon="0.88774">
        <ele>193.36</ele>
        <time>2015-01-04T09:45:03Z</time>
      </trkpt>
      <trkpt lat="44.62205" lon="0.88751">
        <ele>194.32</ele>
        <time>2015-01-04T09:45:14Z</time>
      </trkpt>
      <trkpt lat="44.62207" lon="0.88743">
        <ele>194.8</ele>
        <time>2015-01-04T09:45:17Z</time>
      </trkpt>
      <trkpt lat="44.6221" lon="0.88734">
        <ele>195.28</ele>
        <time>2015-01-04T09:45:28Z</time>
      </trkpt>
      <trkpt lat="44.62209" lon="0.88734">
        <ele>196.25</ele>
        <time>2015-01-04T09:45:44Z</time>
      </trkpt>
      <trkpt lat="44.62208" lon="0.88734">
        <ele>197.69</ele>
        <time>2015-01-04T09:46:09Z</time>
      </trkpt>
      <trkpt lat="44.62208" lon="0.88736">
        <ele>199.13</ele>
        <time>2015-01-04T09:46:40Z</time>
      </trkpt>
      <trkpt lat="44.62207" lon="0.88738">
        <ele>199.13</ele>
        <time>2015-01-04T09:46:57Z</time>
      </trkpt>
      <trkpt lat="44.6221" lon="0.88738">
        <ele>197.69</ele>
        <time>2015-01-04T09:47:12Z</time>
      </trkpt>
      <trkpt lat="44.62213" lon="0.88729">
        <ele>195.28</ele>
        <time>2015-01-04T09:47:28Z</time>
      </trkpt>
      <trkpt lat="44.62212" lon="0.88732">
        <ele>197.21</ele>
        <time>2015-01-04T09:48:05Z</time>
      </trkpt>
      <trkpt lat="44.62209" lon="0.88733">
        <ele>197.69</ele>
        <time>2015-01-04T09:48:43Z</time>
      </trkpt>
      <trkpt lat="44.6221" lon="0.88732">
        <ele>195.77</ele>
        <time>2015-01-04T09:49:15Z</time>
      </trkpt>
      <trkpt lat="44.62211" lon="0.88731">
        <ele>199.61</ele>
        <time>2015-01-04T09:49:48Z</time>
      </trkpt>
      <trkpt lat="44.62211" lon="0.88733">
        <ele>198.17</ele>
        <time>2015-01-04T09:50:19Z</time>
      </trkpt>
      <trkpt lat="44.62212" lon="0.88729">
        <ele>195.77</ele>
        <time>2015-01-04T09:50:57Z</time>
      </trkpt>
      <trkpt lat="44.62211" lon="0.88727">
        <ele>195.77</ele>
        <time>2015-01-04T09:51:27Z</time>
      </trkpt>
      <trkpt lat="44.62213" lon="0.8873">
        <ele>194.8</ele>
        <time>2015-01-04T09:52:04Z</time>
      </trkpt>
      <trkpt lat="44.62212" lon="0.88729">
        <ele>196.25</ele>
        <time>2015-01-04T09:52:39Z</time>
      </trkpt>
      <trkpt lat="44.62212" lon="0.88729">
        <ele>196.73</ele>
        <time>2015-01-04T09:53:18Z</time>
      </trkpt>
      <trkpt lat="44.62212" lon="0.88729">
        <ele>196.25</ele>
        <time>2015-01-04T09:54:02Z</time>
      </trkpt>
      <trkpt lat="44.62213" lon="0.88728">
        <ele>194.8</ele>
        <time>2015-01-04T09:54:45Z</time>
      </trkpt>
      <trkpt lat="44.62213" lon="0.88727">
        <ele>194.32</ele>
        <time>2015-01-04T09:55:15Z</time>
      </trkpt>
      <trkpt lat="44.62213" lon="0.88727">
        <ele>194.32</ele>
        <time>2015-01-04T09:55:16Z</time>
      </trkpt>
      <trkpt lat="44.62212" lon="0.88735">
        <ele>195.28</ele>
        <time>2015-01-04T09:55:29Z</time>
      </trkpt>
      <trkpt lat="44.62212" lon="0.88736">
        <ele>193.84</ele>
        <time>2015-01-04T09:55:44Z</time>
      </trkpt>
      <trkpt lat="44.62212" lon="0.88737">
        <ele>195.28</ele>
        <time>2015-01-04T09:56:13Z</time>
      </trkpt>
      <trkpt lat="44.62211" lon="0.88736">
        <ele>193.36</ele>
        <time>2015-01-04T09:56:33Z</time>
      </trkpt>
      <trkpt lat="44.6221" lon="0.88736">
        <ele>192.4</ele>
        <time>2015-01-04T09:57:00Z</time>
      </trkpt>
      <trkpt lat="44.62207" lon="0.88736">
        <ele>192.88</ele>
        <time>2015-01-04T09:57:16Z</time>
      </trkpt>
      <trkpt lat="44.62207" lon="0.88734">
        <ele>193.84</ele>
        <time>2015-01-04T09:57:23Z</time>
      </trkpt>
      <trkpt lat="44.62207" lon="0.88727">
        <ele>192.4</ele>
        <time>2015-01-04T09:57:27Z</time>
      </trkpt>
      <trkpt lat="44.62207" lon="0.88723">
        <ele>191.92</ele>
        <time>2015-01-04T09:57:29Z</time>
      </trkpt>
      <trkpt lat="44.62206" lon="0.88709">
        <ele>190.96</ele>
        <time>2015-01-04T09:57:35Z</time>
      </trkpt>
      <trkpt lat="44.62201" lon="0.88673">
        <ele>191.92</ele>
        <time>2015-01-04T09:57:48Z</time>
      </trkpt>
      <trkpt lat="44.62196" lon="0.88629">
        <ele>189.04</ele>
        <time>2015-01-04T09:57:57Z</time>
      </trkpt>
      <trkpt lat="44.62191" lon="0.88614">
        <ele>188.56</ele>
        <time>2015-01-04T09:58:00Z</time>
      </trkpt>
      <trkpt lat="44.62193" lon="0.88584">
        <ele>187.11</ele>
        <time>2015-01-04T09:58:04Z</time>
      </trkpt>
      <trkpt lat="44.62198" lon="0.88559">
        <ele>185.67</ele>
        <time>2015-01-04T09:58:08Z</time>
      </trkpt>
      <trkpt lat="44.62188" lon="0.88539">
        <ele>183.75</ele>
        <time>2015-01-04T09:58:12Z</time>
      </trkpt>
      <trkpt lat="44.62174" lon="0.88527">
        <ele>182.31</ele>
        <time>2015-01-04T09:58:15Z</time>
      </trkpt>
      <trkpt lat="44.62158" lon="0.88517">
        <ele>181.35</ele>
        <time>2015-01-04T09:58:19Z</time>
      </trkpt>
      <trkpt lat="44.62159" lon="0.88493">
        <ele>179.9</ele>
        <time>2015-01-04T09:58:23Z</time>
      </trkpt>
      <trkpt lat="44.62163" lon="0.88476">
        <ele>178.94</ele>
        <time>2015-01-04T09:58:25Z</time>
      </trkpt>
      <trkpt lat="44.62183" lon="0.88411">
        <ele>176.54</ele>
        <time>2015-01-04T09:58:34Z</time>
      </trkpt>
      <trkpt lat="44.62197" lon="0.88391">
        <ele>175.58</ele>
        <time>2015-01-04T09:58:38Z</time>
      </trkpt>
      <trkpt lat="44.62216" lon="0.88383">
        <ele>175.1</ele>
        <time>2015-01-04T09:58:42Z</time>
      </trkpt>
      <trkpt lat="44.62232" lon="0.88355">
        <ele>172.69</ele>
        <time>2015-01-04T09:58:48Z</time>
      </trkpt>
      <trkpt lat="44.62234" lon="0.88322">
        <ele>169.81</ele>
        <time>2015-01-04T09:58:57Z</time>
      </trkpt>
      <trkpt lat="44.62235" lon="0.88324">
        <ele>168.85</ele>
        <time>2015-01-04T09:59:09Z</time>
      </trkpt>
      <trkpt lat="44.62264" lon="0.88303">
        <ele>166.93</ele>
        <time>2015-01-04T09:59:20Z</time>
      </trkpt>
      <trkpt lat="44.62268" lon="0.883">
        <ele>166.45</ele>
        <time>2015-01-04T09:59:21Z</time>
      </trkpt>
      <trkpt lat="44.62297" lon="0.88294">
        <ele>165.96</ele>
        <time>2015-01-04T09:59:28Z</time>
      </trkpt>
      <trkpt lat="44.62309" lon="0.88295">
        <ele>166.45</ele>
        <time>2015-01-04T09:59:31Z</time>
      </trkpt>
      <trkpt lat="44.62348" lon="0.88286">
        <ele>167.89</ele>
        <time>2015-01-04T09:59:43Z</time>
      </trkpt>
      <trkpt lat="44.62369" lon="0.88244">
        <ele>170.77</ele>
        <time>2015-01-04T09:59:57Z</time>
      </trkpt>
      <trkpt lat="44.62391" lon="0.88205">
        <ele>174.62</ele>
        <time>2015-01-04T10:00:12Z</time>
      </trkpt>
      <trkpt lat="44.62401" lon="0.88193">
        <ele>175.58</ele>
        <time>2015-01-04T10:00:19Z</time>
      </trkpt>
      <trkpt lat="44.62407" lon="0.88202">
        <ele>176.06</ele>
        <time>2015-01-04T10:00:23Z</time>
      </trkpt>
      <trkpt lat="44.62419" lon="0.88231">
        <ele>174.62</ele>
        <time>2015-01-04T10:00:31Z</time>
      </trkpt>
      <trkpt lat="44.62448" lon="0.88243">
        <ele>174.62</ele>
        <time>2015-01-04T10:00:42Z</time>
      </trkpt>
      <trkpt lat="44.62453" lon="0.88241">
        <ele>175.1</ele>
        <time>2015-01-04T10:00:44Z</time>
      </trkpt>
      <trkpt lat="44.62477" lon="0.882">
        <ele>177.5</ele>
        <time>2015-01-04T10:00:59Z</time>
      </trkpt>
      <trkpt lat="44.62479" lon="0.88199">
        <ele>177.98</ele>
        <time>2015-01-04T10:01:01Z</time>
      </trkpt>
      <trkpt lat="44.62493" lon="0.88201">
        <ele>180.38</ele>
        <time>2015-01-04T10:01:09Z</time>
      </trkpt>
      <trkpt lat="44.62508" lon="0.88209">
        <ele>182.79</ele>
        <time>2015-01-04T10:01:18Z</time>
      </trkpt>
      <trkpt lat="44.62531" lon="0.88226">
        <ele>186.15</ele>
        <time>2015-01-04T10:01:32Z</time>
      </trkpt>
      <trkpt lat="44.62539" lon="0.88227">
        <ele>186.63</ele>
        <time>2015-01-04T10:01:36Z</time>
      </trkpt>
      <trkpt lat="44.62566" lon="0.88215">
        <ele>189.04</ele>
        <time>2015-01-04T10:01:51Z</time>
      </trkpt>
      <trkpt lat="44.62571" lon="0.88211">
        <ele>188.56</ele>
        <time>2015-01-04T10:01:54Z</time>
      </trkpt>
      <trkpt lat="44.6258" lon="0.88206">
        <ele>188.56</ele>
        <time>2015-01-04T10:01:59Z</time>
      </trkpt>
      <trkpt lat="44.6259" lon="0.882">
        <ele>189.04</ele>
        <time>2015-01-04T10:02:04Z</time>
      </trkpt>
      <trkpt lat="44.62619" lon="0.88181">
        <ele>191.92</ele>
        <time>2015-01-04T10:02:17Z</time>
      </trkpt>
      <trkpt lat="44.62631" lon="0.88172">
        <ele>193.36</ele>
        <time>2015-01-04T10:02:23Z</time>
      </trkpt>
      <trkpt lat="44.62649" lon="0.88153">
        <ele>196.25</ele>
        <time>2015-01-04T10:02:34Z</time>
      </trkpt>
      <trkpt lat="44.62651" lon="0.88149">
        <ele>196.25</ele>
        <time>2015-01-04T10:02:36Z</time>
      </trkpt>
      <trkpt lat="44.62662" lon="0.88126">
        <ele>199.13</ele>
        <time>2015-01-04T10:02:51Z</time>
      </trkpt>
      <trkpt lat="44.62662" lon="0.88123">
        <ele>197.69</ele>
        <time>2015-01-04T10:03:19Z</time>
      </trkpt>
      <trkpt lat="44.62662" lon="0.88123">
        <ele>195.77</ele>
        <time>2015-01-04T10:03:44Z</time>
      </trkpt>
      <trkpt lat="44.62661" lon="0.88121">
        <ele>195.28</ele>
        <time>2015-01-04T10:04:15Z</time>
      </trkpt>
      <trkpt lat="44.62668" lon="0.88106">
        <ele>198.17</ele>
        <time>2015-01-04T10:04:28Z</time>
      </trkpt>
      <trkpt lat="44.62674" lon="0.88092">
        <ele>199.61</ele>
        <time>2015-01-04T10:04:37Z</time>
      </trkpt>
      <trkpt lat="44.62681" lon="0.88066">
        <ele>199.61</ele>
        <time>2015-01-04T10:04:47Z</time>
      </trkpt>
      <trkpt lat="44.62709" lon="0.88031">
        <ele>198.17</ele>
        <time>2015-01-04T10:04:59Z</time>
      </trkpt>
      <trkpt lat="44.62763" lon="0.87967">
        <ele>192.88</ele>
        <time>2015-01-04T10:05:13Z</time>
      </trkpt>
      <trkpt lat="44.62816" lon="0.87894">
        <ele>194.8</ele>
        <time>2015-01-04T10:05:26Z</time>
      </trkpt>
      <trkpt lat="44.62829" lon="0.87879">
        <ele>197.21</ele>
        <time>2015-01-04T10:05:30Z</time>
      </trkpt>
      <trkpt lat="44.62862" lon="0.87898">
        <ele>202.49</ele>
        <time>2015-01-04T10:05:41Z</time>
      </trkpt>
      <trkpt lat="44.6287" lon="0.87904">
        <ele>204.9</ele>
        <time>2015-01-04T10:05:46Z</time>
      </trkpt>
      <trkpt lat="44.62896" lon="0.87891">
        <ele>204.42</ele>
        <time>2015-01-04T10:06:00Z</time>
      </trkpt>
      <trkpt lat="44.62926" lon="0.87869">
        <ele>204.42</ele>
        <time>2015-01-04T10:06:17Z</time>
      </trkpt>
      <trkpt lat="44.62948" lon="0.87851">
        <ele>204.42</ele>
        <time>2015-01-04T10:06:30Z</time>
      </trkpt>
      <trkpt lat="44.62958" lon="0.87829">
        <ele>202.98</ele>
        <time>2015-01-04T10:06:45Z</time>
      </trkpt>
      <trkpt lat="44.62959" lon="0.87829">
        <ele>202.01</ele>
        <time>2015-01-04T10:06:59Z</time>
      </trkpt>
      <trkpt lat="44.62959" lon="0.8783">
        <ele>202.01</ele>
        <time>2015-01-04T10:07:11Z</time>
      </trkpt>
      <trkpt lat="44.62959" lon="0.87831">
        <ele>202.01</ele>
        <time>2015-01-04T10:07:35Z</time>
      </trkpt>
      <trkpt lat="44.62958" lon="0.8783">
        <ele>199.61</ele>
        <time>2015-01-04T10:08:07Z</time>
      </trkpt>
      <trkpt lat="44.62959" lon="0.87831">
        <ele>201.05</ele>
        <time>2015-01-04T10:08:40Z</time>
      </trkpt>
      <trkpt lat="44.62959" lon="0.87831">
        <ele>203.94</ele>
        <time>2015-01-04T10:09:13Z</time>
      </trkpt>
      <trkpt lat="44.62959" lon="0.87829">
        <ele>203.46</ele>
        <time>2015-01-04T10:09:41Z</time>
      </trkpt>
      <trkpt lat="44.62959" lon="0.87828">
        <ele>202.01</ele>
        <time>2015-01-04T10:09:49Z</time>
      </trkpt>
      <trkpt lat="44.62968" lon="0.87784">
        <ele>201.05</ele>
        <time>2015-01-04T10:09:59Z</time>
      </trkpt>
      <trkpt lat="44.62981" lon="0.87721">
        <ele>201.53</ele>
        <time>2015-01-04T10:10:09Z</time>
      </trkpt>
      <trkpt lat="44.62983" lon="0.87708">
        <ele>201.53</ele>
        <time>2015-01-04T10:10:11Z</time>
      </trkpt>
      <trkpt lat="44.62974" lon="0.87667">
        <ele>202.49</ele>
        <time>2015-01-04T10:10:18Z</time>
      </trkpt>
      <trkpt lat="44.62964" lon="0.87653">
        <ele>201.53</ele>
        <time>2015-01-04T10:10:21Z</time>
      </trkpt>
      <trkpt lat="44.62889" lon="0.87587">
        <ele>199.13</ele>
        <time>2015-01-04T10:10:36Z</time>
      </trkpt>
      <trkpt lat="44.62854" lon="0.87547">
        <ele>197.21</ele>
        <time>2015-01-04T10:10:46Z</time>
      </trkpt>
      <trkpt lat="44.62794" lon="0.87495">
        <ele>196.73</ele>
        <time>2015-01-04T10:11:02Z</time>
      </trkpt>
      <trkpt lat="44.62717" lon="0.87421">
        <ele>190</ele>
        <time>2015-01-04T10:11:13Z</time>
      </trkpt>
      <trkpt lat="44.62619" lon="0.87296">
        <ele>184.71</ele>
        <time>2015-01-04T10:11:27Z</time>
      </trkpt>
      <trkpt lat="44.62529" lon="0.87197">
        <ele>183.27</ele>
        <time>2015-01-04T10:11:41Z</time>
      </trkpt>
      <trkpt lat="44.62486" lon="0.87179">
        <ele>183.27</ele>
        <time>2015-01-04T10:11:48Z</time>
      </trkpt>
      <trkpt lat="44.62463" lon="0.87187">
        <ele>183.75</ele>
        <time>2015-01-04T10:11:53Z</time>
      </trkpt>
      <trkpt lat="44.62454" lon="0.87207">
        <ele>183.75</ele>
        <time>2015-01-04T10:11:56Z</time>
      </trkpt>
      <trkpt lat="44.62433" lon="0.87246">
        <ele>182.31</ele>
        <time>2015-01-04T10:12:02Z</time>
      </trkpt>
      <trkpt lat="44.62426" lon="0.87262">
        <ele>181.35</ele>
        <time>2015-01-04T10:12:04Z</time>
      </trkpt>
      <trkpt lat="44.62417" lon="0.87285">
        <ele>180.38</ele>
        <time>2015-01-04T10:12:07Z</time>
      </trkpt>
      <trkpt lat="44.62395" lon="0.87317">
        <ele>178.94</ele>
        <time>2015-01-04T10:12:12Z</time>
      </trkpt>
      <trkpt lat="44.62387" lon="0.87334">
        <ele>178.46</ele>
        <time>2015-01-04T10:12:14Z</time>
      </trkpt>
      <trkpt lat="44.62365" lon="0.87372">
        <ele>177.5</ele>
        <time>2015-01-04T10:12:19Z</time>
      </trkpt>
      <trkpt lat="44.62358" lon="0.87388">
        <ele>177.5</ele>
        <time>2015-01-04T10:12:21Z</time>
      </trkpt>
      <trkpt lat="44.6235" lon="0.874">
        <ele>177.5</ele>
        <time>2015-01-04T10:12:23Z</time>
      </trkpt>
      <trkpt lat="44.62336" lon="0.87446">
        <ele>177.02</ele>
        <time>2015-01-04T10:12:30Z</time>
      </trkpt>
      <trkpt lat="44.62325" lon="0.87467">
        <ele>176.54</ele>
        <time>2015-01-04T10:12:35Z</time>
      </trkpt>
      <trkpt lat="44.62306" lon="0.8746">
        <ele>174.14</ele>
        <time>2015-01-04T10:12:45Z</time>
      </trkpt>
      <trkpt lat="44.62302" lon="0.87459">
        <ele>174.14</ele>
        <time>2015-01-04T10:12:47Z</time>
      </trkpt>
      <trkpt lat="44.62263" lon="0.87445">
        <ele>174.14</ele>
        <time>2015-01-04T10:13:00Z</time>
      </trkpt>
      <trkpt lat="44.62249" lon="0.87443">
        <ele>173.66</ele>
        <time>2015-01-04T10:13:03Z</time>
      </trkpt>
      <trkpt lat="44.62211" lon="0.87431">
        <ele>174.14</ele>
        <time>2015-01-04T10:13:10Z</time>
      </trkpt>
      <trkpt lat="44.62192" lon="0.87431">
        <ele>174.62</ele>
        <time>2015-01-04T10:13:13Z</time>
      </trkpt>
      <trkpt lat="44.62168" lon="0.87429">
        <ele>175.58</ele>
        <time>2015-01-04T10:13:17Z</time>
      </trkpt>
      <trkpt lat="44.62127" lon="0.87426">
        <ele>176.06</ele>
        <time>2015-01-04T10:13:26Z</time>
      </trkpt>
      <trkpt lat="44.62109" lon="0.87431">
        <ele>176.06</ele>
        <time>2015-01-04T10:13:30Z</time>
      </trkpt>
      <trkpt lat="44.62066" lon="0.87422">
        <ele>177.98</ele>
        <time>2015-01-04T10:13:40Z</time>
      </trkpt>
      <trkpt lat="44.62062" lon="0.87421">
        <ele>177.98</ele>
        <time>2015-01-04T10:13:41Z</time>
      </trkpt>
      <trkpt lat="44.62024" lon="0.87418">
        <ele>181.83</ele>
        <time>2015-01-04T10:13:51Z</time>
      </trkpt>
      <trkpt lat="44.62021" lon="0.87418">
        <ele>182.31</ele>
        <time>2015-01-04T10:13:52Z</time>
      </trkpt>
      <trkpt lat="44.61975" lon="0.87399">
        <ele>185.19</ele>
        <time>2015-01-04T10:14:05Z</time>
      </trkpt>
      <trkpt lat="44.61962" lon="0.87389">
        <ele>184.23</ele>
        <time>2015-01-04T10:14:09Z</time>
      </trkpt>
      <trkpt lat="44.61942" lon="0.87384">
        <ele>183.75</ele>
        <time>2015-01-04T10:14:13Z</time>
      </trkpt>
      <trkpt lat="44.61911" lon="0.87395">
        <ele>183.75</ele>
        <time>2015-01-04T10:14:18Z</time>
      </trkpt>
      <trkpt lat="44.61845" lon="0.87436">
        <ele>186.15</ele>
        <time>2015-01-04T10:14:29Z</time>
      </trkpt>
      <trkpt lat="44.6182" lon="0.87459">
        <ele>185.67</ele>
        <time>2015-01-04T10:14:34Z</time>
      </trkpt>
      <trkpt lat="44.61798" lon="0.87455">
        <ele>183.27</ele>
        <time>2015-01-04T10:14:39Z</time>
      </trkpt>
      <trkpt lat="44.6176" lon="0.87459">
        <ele>177.02</ele>
        <time>2015-01-04T10:14:46Z</time>
      </trkpt>
      <trkpt lat="44.61709" lon="0.87441">
        <ele>172.21</ele>
        <time>2015-01-04T10:14:53Z</time>
      </trkpt>
      <trkpt lat="44.61682" lon="0.87418">
        <ele>169.81</ele>
        <time>2015-01-04T10:14:57Z</time>
      </trkpt>
      <trkpt lat="44.61639" lon="0.87392">
        <ele>169.81</ele>
        <time>2015-01-04T10:15:03Z</time>
      </trkpt>
      <trkpt lat="44.61618" lon="0.87381">
        <ele>172.21</ele>
        <time>2015-01-04T10:15:07Z</time>
      </trkpt>
      <trkpt lat="44.61605" lon="0.87368">
        <ele>174.62</ele>
        <time>2015-01-04T10:15:12Z</time>
      </trkpt>
      <trkpt lat="44.61599" lon="0.8737">
        <ele>175.1</ele>
        <time>2015-01-04T10:15:18Z</time>
      </trkpt>
      <trkpt lat="44.61602" lon="0.87368">
        <ele>174.62</ele>
        <time>2015-01-04T10:15:22Z</time>
      </trkpt>
      <trkpt lat="44.61616" lon="0.87347">
        <ele>175.58</ele>
        <time>2015-01-04T10:15:37Z</time>
      </trkpt>
      <trkpt lat="44.6162" lon="0.87337">
        <ele>175.58</ele>
        <time>2015-01-04T10:15:42Z</time>
      </trkpt>
      <trkpt lat="44.61632" lon="0.87289">
        <ele>175.58</ele>
        <time>2015-01-04T10:15:58Z</time>
      </trkpt>
      <trkpt lat="44.61657" lon="0.87218">
        <ele>174.62</ele>
        <time>2015-01-04T10:16:11Z</time>
      </trkpt>
      <trkpt lat="44.61661" lon="0.87203">
        <ele>174.14</ele>
        <time>2015-01-04T10:16:13Z</time>
      </trkpt>
      <trkpt lat="44.61672" lon="0.87172">
        <ele>173.17</ele>
        <time>2015-01-04T10:16:17Z</time>
      </trkpt>
      <trkpt lat="44.61734" lon="0.87053">
        <ele>175.1</ele>
        <time>2015-01-04T10:16:35Z</time>
      </trkpt>
      <trkpt lat="44.6177" lon="0.86967">
        <ele>176.54</ele>
        <time>2015-01-04T10:16:48Z</time>
      </trkpt>
      <trkpt lat="44.61772" lon="0.86961">
        <ele>176.54</ele>
        <time>2015-01-04T10:16:49Z</time>
      </trkpt>
      <trkpt lat="44.61797" lon="0.86862">
        <ele>181.83</ele>
        <time>2015-01-04T10:17:07Z</time>
      </trkpt>
      <trkpt lat="44.61797" lon="0.86814">
        <ele>183.75</ele>
        <time>2015-01-04T10:17:20Z</time>
      </trkpt>
      <trkpt lat="44.61783" lon="0.86777">
        <ele>187.59</ele>
        <time>2015-01-04T10:17:31Z</time>
      </trkpt>
      <trkpt lat="44.61804" lon="0.86755">
        <ele>188.56</ele>
        <time>2015-01-04T10:17:44Z</time>
      </trkpt>
      <trkpt lat="44.61827" lon="0.86698">
        <ele>189.04</ele>
        <time>2015-01-04T10:17:58Z</time>
      </trkpt>
      <trkpt lat="44.6184" lon="0.8666">
        <ele>188.56</ele>
        <time>2015-01-04T10:18:07Z</time>
      </trkpt>
      <trkpt lat="44.6188" lon="0.86574">
        <ele>185.67</ele>
        <time>2015-01-04T10:18:21Z</time>
      </trkpt>
      <trkpt lat="44.61892" lon="0.86548">
        <ele>186.15</ele>
        <time>2015-01-04T10:18:26Z</time>
      </trkpt>
      <trkpt lat="44.61892" lon="0.86498">
        <ele>183.75</ele>
        <time>2015-01-04T10:18:34Z</time>
      </trkpt>
      <trkpt lat="44.61893" lon="0.86466">
        <ele>182.31</ele>
        <time>2015-01-04T10:18:38Z</time>
      </trkpt>
      <trkpt lat="44.61895" lon="0.86435">
        <ele>181.35</ele>
        <time>2015-01-04T10:18:42Z</time>
      </trkpt>
      <trkpt lat="44.61894" lon="0.8641">
        <ele>181.35</ele>
        <time>2015-01-04T10:18:46Z</time>
      </trkpt>
      <trkpt lat="44.61889" lon="0.86379">
        <ele>180.87</ele>
        <time>2015-01-04T10:18:50Z</time>
      </trkpt>
      <trkpt lat="44.61891" lon="0.86321">
        <ele>177.98</ele>
        <time>2015-01-04T10:18:56Z</time>
      </trkpt>
      <trkpt lat="44.61873" lon="0.86269">
        <ele>174.62</ele>
        <time>2015-01-04T10:19:03Z</time>
      </trkpt>
      <trkpt lat="44.61873" lon="0.86261">
        <ele>174.14</ele>
        <time>2015-01-04T10:19:04Z</time>
      </trkpt>
      <trkpt lat="44.61872" lon="0.8624">
        <ele>173.17</ele>
        <time>2015-01-04T10:19:07Z</time>
      </trkpt>
      <trkpt lat="44.61874" lon="0.86218">
        <ele>170.77</ele>
        <time>2015-01-04T10:19:10Z</time>
      </trkpt>
      <trkpt lat="44.61877" lon="0.86172">
        <ele>167.41</ele>
        <time>2015-01-04T10:19:15Z</time>
      </trkpt>
      <trkpt lat="44.61883" lon="0.861">
        <ele>163.08</ele>
        <time>2015-01-04T10:19:27Z</time>
      </trkpt>
      <trkpt lat="44.61884" lon="0.86055">
        <ele>160.68</ele>
        <time>2015-01-04T10:19:33Z</time>
      </trkpt>
      <trkpt lat="44.61884" lon="0.85988">
        <ele>157.31</ele>
        <time>2015-01-04T10:19:42Z</time>
      </trkpt>
      <trkpt lat="44.61879" lon="0.85863">
        <ele>153.95</ele>
        <time>2015-01-04T10:19:56Z</time>
      </trkpt>
      <trkpt lat="44.61881" lon="0.85836">
        <ele>152.99</ele>
        <time>2015-01-04T10:19:59Z</time>
      </trkpt>
      <trkpt lat="44.61877" lon="0.85745">
        <ele>149.62</ele>
        <time>2015-01-04T10:20:10Z</time>
      </trkpt>
      <trkpt lat="44.61877" lon="0.85727">
        <ele>148.18</ele>
        <time>2015-01-04T10:20:12Z</time>
      </trkpt>
      <trkpt lat="44.61877" lon="0.85683">
        <ele>144.82</ele>
        <time>2015-01-04T10:20:18Z</time>
      </trkpt>
      <trkpt lat="44.61882" lon="0.85614">
        <ele>141.93</ele>
        <time>2015-01-04T10:20:27Z</time>
      </trkpt>
      <trkpt lat="44.61884" lon="0.85598">
        <ele>140.97</ele>
        <time>2015-01-04T10:20:29Z</time>
      </trkpt>
      <trkpt lat="44.61882" lon="0.8557">
        <ele>140.01</ele>
        <time>2015-01-04T10:20:34Z</time>
      </trkpt>
      <trkpt lat="44.61873" lon="0.8555">
        <ele>139.05</ele>
        <time>2015-01-04T10:20:39Z</time>
      </trkpt>
      <trkpt lat="44.6185" lon="0.85553">
        <ele>143.37</ele>
        <time>2015-01-04T10:20:48Z</time>
      </trkpt>
      <trkpt lat="44.61815" lon="0.85567">
        <ele>146.74</ele>
        <time>2015-01-04T10:21:00Z</time>
      </trkpt>
      <trkpt lat="44.61801" lon="0.85558">
        <ele>146.26</ele>
        <time>2015-01-04T10:21:04Z</time>
      </trkpt>
      <trkpt lat="44.61748" lon="0.85545">
        <ele>147.7</ele>
        <time>2015-01-04T10:21:18Z</time>
      </trkpt>
      <trkpt lat="44.61741" lon="0.85541">
        <ele>148.18</ele>
        <time>2015-01-04T10:21:21Z</time>
      </trkpt>
      <trkpt lat="44.61736" lon="0.85537">
        <ele>149.62</ele>
        <time>2015-01-04T10:21:33Z</time>
      </trkpt>
      <trkpt lat="44.61735" lon="0.85536">
        <ele>151.06</ele>
        <time>2015-01-04T10:21:47Z</time>
      </trkpt>
      <trkpt lat="44.61732" lon="0.8554">
        <ele>151.54</ele>
        <time>2015-01-04T10:22:01Z</time>
      </trkpt>
      <trkpt lat="44.61731" lon="0.85549">
        <ele>152.03</ele>
        <time>2015-01-04T10:22:05Z</time>
      </trkpt>
      <trkpt lat="44.61727" lon="0.85564">
        <ele>154.43</ele>
        <time>2015-01-04T10:22:11Z</time>
      </trkpt>
      <trkpt lat="44.61715" lon="0.85594">
        <ele>158.27</ele>
        <time>2015-01-04T10:22:25Z</time>
      </trkpt>
      <trkpt lat="44.61709" lon="0.85612">
        <ele>159.72</ele>
        <time>2015-01-04T10:22:33Z</time>
      </trkpt>
      <trkpt lat="44.61701" lon="0.85644">
        <ele>164.04</ele>
        <time>2015-01-04T10:22:48Z</time>
      </trkpt>
      <trkpt lat="44.61692" lon="0.85675">
        <ele>166.93</ele>
        <time>2015-01-04T10:23:03Z</time>
      </trkpt>
      <trkpt lat="44.61682" lon="0.85703">
        <ele>171.25</ele>
        <time>2015-01-04T10:23:17Z</time>
      </trkpt>
      <trkpt lat="44.61673" lon="0.85732">
        <ele>172.21</ele>
        <time>2015-01-04T10:23:31Z</time>
      </trkpt>
      <trkpt lat="44.61671" lon="0.85741">
        <ele>171.73</ele>
        <time>2015-01-04T10:23:35Z</time>
      </trkpt>
      <trkpt lat="44.61667" lon="0.85776">
        <ele>176.54</ele>
        <time>2015-01-04T10:23:48Z</time>
      </trkpt>
      <trkpt lat="44.61659" lon="0.85815">
        <ele>182.79</ele>
        <time>2015-01-04T10:24:02Z</time>
      </trkpt>
      <trkpt lat="44.61658" lon="0.85827">
        <ele>184.23</ele>
        <time>2015-01-04T10:24:06Z</time>
      </trkpt>
      <trkpt lat="44.61661" lon="0.85862">
        <ele>185.67</ele>
        <time>2015-01-04T10:24:17Z</time>
      </trkpt>
      <trkpt lat="44.61659" lon="0.85869">
        <ele>185.19</ele>
        <time>2015-01-04T10:24:21Z</time>
      </trkpt>
      <trkpt lat="44.61636" lon="0.85877">
        <ele>182.79</ele>
        <time>2015-01-04T10:24:32Z</time>
      </trkpt>
      <trkpt lat="44.61619" lon="0.85889">
        <ele>179.9</ele>
        <time>2015-01-04T10:24:36Z</time>
      </trkpt>
      <trkpt lat="44.61585" lon="0.85928">
        <ele>173.66</ele>
        <time>2015-01-04T10:24:42Z</time>
      </trkpt>
      <trkpt lat="44.61576" lon="0.85951">
        <ele>169.81</ele>
        <time>2015-01-04T10:24:48Z</time>
      </trkpt>
      <trkpt lat="44.61577" lon="0.85955">
        <ele>171.73</ele>
        <time>2015-01-04T10:25:01Z</time>
      </trkpt>
      <trkpt lat="44.61577" lon="0.85957">
        <ele>171.25</ele>
        <time>2015-01-04T10:25:22Z</time>
      </trkpt>
      <trkpt lat="44.61573" lon="0.85953">
        <ele>169.81</ele>
        <time>2015-01-04T10:25:34Z</time>
      </trkpt>
      <trkpt lat="44.61568" lon="0.85943">
        <ele>167.89</ele>
        <time>2015-01-04T10:25:39Z</time>
      </trkpt>
      <trkpt lat="44.61559" lon="0.85926">
        <ele>165.48</ele>
        <time>2015-01-04T10:25:45Z</time>
      </trkpt>
      <trkpt lat="44.61542" lon="0.85901">
        <ele>164.04</ele>
        <time>2015-01-04T10:25:53Z</time>
      </trkpt>
      <trkpt lat="44.61532" lon="0.85878">
        <ele>163.08</ele>
        <time>2015-01-04T10:25:59Z</time>
      </trkpt>
      <trkpt lat="44.61539" lon="0.85858">
        <ele>162.12</ele>
        <time>2015-01-04T10:26:05Z</time>
      </trkpt>
      <trkpt lat="44.61563" lon="0.85831">
        <ele>161.64</ele>
        <time>2015-01-04T10:26:13Z</time>
      </trkpt>
      <trkpt lat="44.61569" lon="0.85782">
        <ele>156.83</ele>
        <time>2015-01-04T10:26:19Z</time>
      </trkpt>
      <trkpt lat="44.61573" lon="0.85718">
        <ele>150.58</ele>
        <time>2015-01-04T10:26:28Z</time>
      </trkpt>
      <trkpt lat="44.61574" lon="0.85711">
        <ele>150.1</ele>
        <time>2015-01-04T10:26:29Z</time>
      </trkpt>
      <trkpt lat="44.61573" lon="0.85599">
        <ele>149.14</ele>
        <time>2015-01-04T10:26:43Z</time>
      </trkpt>
      <trkpt lat="44.61572" lon="0.85581">
        <ele>149.62</ele>
        <time>2015-01-04T10:26:46Z</time>
      </trkpt>
      <trkpt lat="44.61548" lon="0.85571">
        <ele>155.39</ele>
        <time>2015-01-04T10:26:56Z</time>
      </trkpt>
      <trkpt lat="44.61532" lon="0.85564">
        <ele>156.83</ele>
        <time>2015-01-04T10:27:02Z</time>
      </trkpt>
      <trkpt lat="44.61509" lon="0.85571">
        <ele>162.12</ele>
        <time>2015-01-04T10:27:12Z</time>
      </trkpt>
      <trkpt lat="44.61506" lon="0.85573">
        <ele>163.56</ele>
        <time>2015-01-04T10:27:14Z</time>
      </trkpt>
      <trkpt lat="44.61478" lon="0.85577">
        <ele>168.85</ele>
        <time>2015-01-04T10:27:28Z</time>
      </trkpt>
      <trkpt lat="44.61452" lon="0.85586">
        <ele>172.21</ele>
        <time>2015-01-04T10:27:42Z</time>
      </trkpt>
      <trkpt lat="44.61447" lon="0.8559">
        <ele>172.21</ele>
        <time>2015-01-04T10:27:45Z</time>
      </trkpt>
      <trkpt lat="44.61431" lon="0.85602">
        <ele>172.69</ele>
        <time>2015-01-04T10:27:57Z</time>
      </trkpt>
      <trkpt lat="44.6143" lon="0.856">
        <ele>171.73</ele>
        <time>2015-01-04T10:27:58Z</time>
      </trkpt>
      <trkpt lat="44.61428" lon="0.85552">
        <ele>167.89</ele>
        <time>2015-01-04T10:28:12Z</time>
      </trkpt>
      <trkpt lat="44.61439" lon="0.85484">
        <ele>164.04</ele>
        <time>2015-01-04T10:28:27Z</time>
      </trkpt>
      <trkpt lat="44.61451" lon="0.85432">
        <ele>166.93</ele>
        <time>2015-01-04T10:28:40Z</time>
      </trkpt>
      <trkpt lat="44.61462" lon="0.85375">
        <ele>168.37</ele>
        <time>2015-01-04T10:28:54Z</time>
      </trkpt>
      <trkpt lat="44.61477" lon="0.85299">
        <ele>172.21</ele>
        <time>2015-01-04T10:29:11Z</time>
      </trkpt>
      <trkpt lat="44.61493" lon="0.85245">
        <ele>174.62</ele>
        <time>2015-01-04T10:29:26Z</time>
      </trkpt>
      <trkpt lat="44.61513" lon="0.85214">
        <ele>174.62</ele>
        <time>2015-01-04T10:29:38Z</time>
      </trkpt>
      <trkpt lat="44.6151" lon="0.85202">
        <ele>174.62</ele>
        <time>2015-01-04T10:29:44Z</time>
      </trkpt>
      <trkpt lat="44.61488" lon="0.85215">
        <ele>177.02</ele>
        <time>2015-01-04T10:29:56Z</time>
      </trkpt>
      <trkpt lat="44.61472" lon="0.85226">
        <ele>180.38</ele>
        <time>2015-01-04T10:30:05Z</time>
      </trkpt>
      <trkpt lat="44.61469" lon="0.8522">
        <ele>179.9</ele>
        <time>2015-01-04T10:30:09Z</time>
      </trkpt>
      <trkpt lat="44.61462" lon="0.852">
        <ele>178.46</ele>
        <time>2015-01-04T10:30:15Z</time>
      </trkpt>
      <trkpt lat="44.61437" lon="0.85164">
        <ele>173.17</ele>
        <time>2015-01-04T10:30:23Z</time>
      </trkpt>
      <trkpt lat="44.61407" lon="0.8514">
        <ele>170.77</ele>
        <time>2015-01-04T10:30:30Z</time>
      </trkpt>
      <trkpt lat="44.61398" lon="0.85114">
        <ele>168.37</ele>
        <time>2015-01-04T10:30:37Z</time>
      </trkpt>
      <trkpt lat="44.61399" lon="0.85104">
        <ele>167.41</ele>
        <time>2015-01-04T10:30:39Z</time>
      </trkpt>
      <trkpt lat="44.614" lon="0.85076">
        <ele>165</ele>
        <time>2015-01-04T10:30:44Z</time>
      </trkpt>
      <trkpt lat="44.61406" lon="0.85048">
        <ele>163.08</ele>
        <time>2015-01-04T10:30:49Z</time>
      </trkpt>
      <trkpt lat="44.61412" lon="0.8503">
        <ele>162.6</ele>
        <time>2015-01-04T10:30:52Z</time>
      </trkpt>
      <trkpt lat="44.61421" lon="0.85014">
        <ele>162.6</ele>
        <time>2015-01-04T10:30:55Z</time>
      </trkpt>
      <trkpt lat="44.61421" lon="0.84991">
        <ele>163.08</ele>
        <time>2015-01-04T10:30:59Z</time>
      </trkpt>
      <trkpt lat="44.61406" lon="0.8496">
        <ele>164.04</ele>
        <time>2015-01-04T10:31:05Z</time>
      </trkpt>
      <trkpt lat="44.61402" lon="0.84949">
        <ele>164.04</ele>
        <time>2015-01-04T10:31:07Z</time>
      </trkpt>
      <trkpt lat="44.61384" lon="0.849">
        <ele>165</ele>
        <time>2015-01-04T10:31:15Z</time>
      </trkpt>
      <trkpt lat="44.61371" lon="0.84826">
        <ele>162.6</ele>
        <time>2015-01-04T10:31:25Z</time>
      </trkpt>
      <trkpt lat="44.61374" lon="0.84805">
        <ele>162.12</ele>
        <time>2015-01-04T10:31:28Z</time>
      </trkpt>
      <trkpt lat="44.6138" lon="0.84771">
        <ele>160.68</ele>
        <time>2015-01-04T10:31:33Z</time>
      </trkpt>
      <trkpt lat="44.61384" lon="0.84745">
        <ele>159.72</ele>
        <time>2015-01-04T10:31:36Z</time>
      </trkpt>
      <trkpt lat="44.61424" lon="0.84646">
        <ele>156.35</ele>
        <time>2015-01-04T10:31:48Z</time>
      </trkpt>
      <trkpt lat="44.61464" lon="0.84597">
        <ele>153.95</ele>
        <time>2015-01-04T10:31:55Z</time>
      </trkpt>
      <trkpt lat="44.61481" lon="0.84584">
        <ele>152.51</ele>
        <time>2015-01-04T10:31:57Z</time>
      </trkpt>
      <trkpt lat="44.61505" lon="0.84543">
        <ele>148.18</ele>
        <time>2015-01-04T10:32:01Z</time>
      </trkpt>
      <trkpt lat="44.61515" lon="0.84522">
        <ele>147.22</ele>
        <time>2015-01-04T10:32:04Z</time>
      </trkpt>
      <trkpt lat="44.615" lon="0.84511">
        <ele>148.66</ele>
        <time>2015-01-04T10:32:13Z</time>
      </trkpt>
      <trkpt lat="44.61494" lon="0.84509">
        <ele>149.14</ele>
        <time>2015-01-04T10:32:26Z</time>
      </trkpt>
      <trkpt lat="44.61446" lon="0.84494">
        <ele>148.18</ele>
        <time>2015-01-04T10:32:38Z</time>
      </trkpt>
      <trkpt lat="44.61406" lon="0.8448">
        <ele>144.82</ele>
        <time>2015-01-04T10:32:45Z</time>
      </trkpt>
      <trkpt lat="44.61361" lon="0.84465">
        <ele>143.85</ele>
        <time>2015-01-04T10:32:52Z</time>
      </trkpt>
      <trkpt lat="44.61306" lon="0.84442">
        <ele>146.74</ele>
        <time>2015-01-04T10:33:05Z</time>
      </trkpt>
      <trkpt lat="44.61289" lon="0.84435">
        <ele>147.22</ele>
        <time>2015-01-04T10:33:09Z</time>
      </trkpt>
      <trkpt lat="44.61249" lon="0.84413">
        <ele>151.54</ele>
        <time>2015-01-04T10:33:22Z</time>
      </trkpt>
      <trkpt lat="44.61196" lon="0.8437">
        <ele>145.3</ele>
        <time>2015-01-04T10:33:35Z</time>
      </trkpt>
      <trkpt lat="44.61158" lon="0.84342">
        <ele>138.57</ele>
        <time>2015-01-04T10:33:43Z</time>
      </trkpt>
      <trkpt lat="44.6113" lon="0.84319">
        <ele>138.57</ele>
        <time>2015-01-04T10:33:53Z</time>
      </trkpt>
      <trkpt lat="44.61091" lon="0.84283">
        <ele>146.74</ele>
        <time>2015-01-04T10:34:07Z</time>
      </trkpt>
      <trkpt lat="44.61082" lon="0.84269">
        <ele>148.18</ele>
        <time>2015-01-04T10:34:13Z</time>
      </trkpt>
      <trkpt lat="44.61077" lon="0.84266">
        <ele>148.66</ele>
        <time>2015-01-04T10:34:17Z</time>
      </trkpt>
      <trkpt lat="44.61055" lon="0.8427">
        <ele>152.03</ele>
        <time>2015-01-04T10:34:34Z</time>
      </trkpt>
      <trkpt lat="44.61054" lon="0.84271">
        <ele>152.51</ele>
        <time>2015-01-04T10:34:35Z</time>
      </trkpt>
      <trkpt lat="44.61032" lon="0.84276">
        <ele>154.91</ele>
        <time>2015-01-04T10:34:52Z</time>
      </trkpt>
      <trkpt lat="44.61004" lon="0.84282">
        <ele>157.79</ele>
        <time>2015-01-04T10:35:08Z</time>
      </trkpt>
      <trkpt lat="44.60964" lon="0.84288">
        <ele>160.2</ele>
        <time>2015-01-04T10:35:26Z</time>
      </trkpt>
      <trkpt lat="44.60908" lon="0.84286">
        <ele>158.75</ele>
        <time>2015-01-04T10:35:45Z</time>
      </trkpt>
      <trkpt lat="44.60844" lon="0.84284">
        <ele>160.68</ele>
        <time>2015-01-04T10:36:05Z</time>
      </trkpt>
      <trkpt lat="44.60808" lon="0.8428">
        <ele>163.08</ele>
        <time>2015-01-04T10:36:20Z</time>
      </trkpt>
      <trkpt lat="44.60765" lon="0.84267">
        <ele>160.68</ele>
        <time>2015-01-04T10:36:36Z</time>
      </trkpt>
      <trkpt lat="44.60705" lon="0.84248">
        <ele>156.83</ele>
        <time>2015-01-04T10:36:48Z</time>
      </trkpt>
      <trkpt lat="44.60654" lon="0.84216">
        <ele>151.54</ele>
        <time>2015-01-04T10:36:57Z</time>
      </trkpt>
      <trkpt lat="44.60577" lon="0.84127">
        <ele>143.85</ele>
        <time>2015-01-04T10:37:10Z</time>
      </trkpt>
      <trkpt lat="44.60521" lon="0.84094">
        <ele>145.78</ele>
        <time>2015-01-04T10:37:18Z</time>
      </trkpt>
      <trkpt lat="44.60496" lon="0.84046">
        <ele>147.7</ele>
        <time>2015-01-04T10:37:27Z</time>
      </trkpt>
      <trkpt lat="44.60485" lon="0.84044">
        <ele>148.18</ele>
        <time>2015-01-04T10:37:30Z</time>
      </trkpt>
      <trkpt lat="44.6042" lon="0.84075">
        <ele>147.7</ele>
        <time>2015-01-04T10:37:44Z</time>
      </trkpt>
      <trkpt lat="44.60351" lon="0.84083">
        <ele>147.22</ele>
        <time>2015-01-04T10:37:55Z</time>
      </trkpt>
      <trkpt lat="44.60318" lon="0.84096">
        <ele>148.18</ele>
        <time>2015-01-04T10:38:01Z</time>
      </trkpt>
      <trkpt lat="44.60298" lon="0.84103">
        <ele>148.18</ele>
        <time>2015-01-04T10:38:05Z</time>
      </trkpt>
      <trkpt lat="44.6025" lon="0.84097">
        <ele>143.85</ele>
        <time>2015-01-04T10:38:13Z</time>
      </trkpt>
      <trkpt lat="44.60223" lon="0.84079">
        <ele>140.01</ele>
        <time>2015-01-04T10:38:17Z</time>
      </trkpt>
      <trkpt lat="44.60195" lon="0.84094">
        <ele>134.72</ele>
        <time>2015-01-04T10:38:23Z</time>
      </trkpt>
      <trkpt lat="44.60174" lon="0.841">
        <ele>130.88</ele>
        <time>2015-01-04T10:38:28Z</time>
      </trkpt>
      <trkpt lat="44.60165" lon="0.84135">
        <ele>127.03</ele>
        <time>2015-01-04T10:38:33Z</time>
      </trkpt>
      <trkpt lat="44.60151" lon="0.84145">
        <ele>124.15</ele>
        <time>2015-01-04T10:38:36Z</time>
      </trkpt>
      <trkpt lat="44.60145" lon="0.84148">
        <ele>124.15</ele>
        <time>2015-01-04T10:38:38Z</time>
      </trkpt>
      <trkpt lat="44.60133" lon="0.84199">
        <ele>124.15</ele>
        <time>2015-01-04T10:38:51Z</time>
      </trkpt>
      <trkpt lat="44.60113" lon="0.84279">
        <ele>126.07</ele>
        <time>2015-01-04T10:39:08Z</time>
      </trkpt>
      <trkpt lat="44.6012" lon="0.84317">
        <ele>131.36</ele>
        <time>2015-01-04T10:39:20Z</time>
      </trkpt>
      <trkpt lat="44.60127" lon="0.84354">
        <ele>137.61</ele>
        <time>2015-01-04T10:39:34Z</time>
      </trkpt>
      <trkpt lat="44.60126" lon="0.84394">
        <ele>142.89</ele>
        <time>2015-01-04T10:39:48Z</time>
      </trkpt>
      <trkpt lat="44.60125" lon="0.84421">
        <ele>146.74</ele>
        <time>2015-01-04T10:39:58Z</time>
      </trkpt>
      <trkpt lat="44.60127" lon="0.84457">
        <ele>150.1</ele>
        <time>2015-01-04T10:40:12Z</time>
      </trkpt>
      <trkpt lat="44.60135" lon="0.84497">
        <ele>152.51</ele>
        <time>2015-01-04T10:40:28Z</time>
      </trkpt>
      <trkpt lat="44.60144" lon="0.84538">
        <ele>152.99</ele>
        <time>2015-01-04T10:40:44Z</time>
      </trkpt>
      <trkpt lat="44.60153" lon="0.84587">
        <ele>154.43</ele>
        <time>2015-01-04T10:41:01Z</time>
      </trkpt>
      <trkpt lat="44.60132" lon="0.84629">
        <ele>156.83</ele>
        <time>2015-01-04T10:41:16Z</time>
      </trkpt>
      <trkpt lat="44.60106" lon="0.84684">
        <ele>159.72</ele>
        <time>2015-01-04T10:41:33Z</time>
      </trkpt>
      <trkpt lat="44.60091" lon="0.84729">
        <ele>163.08</ele>
        <time>2015-01-04T10:41:46Z</time>
      </trkpt>
      <trkpt lat="44.60086" lon="0.84785">
        <ele>165</ele>
        <time>2015-01-04T10:42:01Z</time>
      </trkpt>
      <trkpt lat="44.60086" lon="0.84835">
        <ele>167.41</ele>
        <time>2015-01-04T10:42:15Z</time>
      </trkpt>
      <trkpt lat="44.60087" lon="0.84888">
        <ele>170.29</ele>
        <time>2015-01-04T10:42:30Z</time>
      </trkpt>
      <trkpt lat="44.6008" lon="0.84949">
        <ele>172.21</ele>
        <time>2015-01-04T10:42:46Z</time>
      </trkpt>
      <trkpt lat="44.60064" lon="0.8502">
        <ele>173.17</ele>
        <time>2015-01-04T10:43:02Z</time>
      </trkpt>
      <trkpt lat="44.60057" lon="0.85093">
        <ele>175.58</ele>
        <time>2015-01-04T10:43:17Z</time>
      </trkpt>
      <trkpt lat="44.60037" lon="0.85174">
        <ele>177.5</ele>
        <time>2015-01-04T10:43:33Z</time>
      </trkpt>
      <trkpt lat="44.60018" lon="0.85251">
        <ele>178.94</ele>
        <time>2015-01-04T10:43:46Z</time>
      </trkpt>
      <trkpt lat="44.59973" lon="0.85351">
        <ele>179.9</ele>
        <time>2015-01-04T10:44:03Z</time>
      </trkpt>
      <trkpt lat="44.59936" lon="0.85424">
        <ele>181.83</ele>
        <time>2015-01-04T10:44:16Z</time>
      </trkpt>
      <trkpt lat="44.59921" lon="0.85448">
        <ele>183.27</ele>
        <time>2015-01-04T10:44:21Z</time>
      </trkpt>
      <trkpt lat="44.59913" lon="0.85469">
        <ele>183.75</ele>
        <time>2015-01-04T10:44:25Z</time>
      </trkpt>
      <trkpt lat="44.59901" lon="0.85507">
        <ele>184.71</ele>
        <time>2015-01-04T10:44:32Z</time>
      </trkpt>
      <trkpt lat="44.59874" lon="0.85571">
        <ele>187.59</ele>
        <time>2015-01-04T10:44:44Z</time>
      </trkpt>
      <trkpt lat="44.5985" lon="0.85663">
        <ele>190</ele>
        <time>2015-01-04T10:45:00Z</time>
      </trkpt>
      <trkpt lat="44.59847" lon="0.85678">
        <ele>190</ele>
        <time>2015-01-04T10:45:02Z</time>
      </trkpt>
      <trkpt lat="44.59835" lon="0.85779">
        <ele>186.63</ele>
        <time>2015-01-04T10:45:15Z</time>
      </trkpt>
      <trkpt lat="44.59836" lon="0.85787">
        <ele>185.19</ele>
        <time>2015-01-04T10:45:26Z</time>
      </trkpt>
      <trkpt lat="44.59834" lon="0.85791">
        <ele>185.19</ele>
        <time>2015-01-04T10:45:50Z</time>
      </trkpt>
      <trkpt lat="44.59832" lon="0.85793">
        <ele>181.35</ele>
        <time>2015-01-04T10:46:24Z</time>
      </trkpt>
      <trkpt lat="44.59831" lon="0.85808">
        <ele>186.15</ele>
        <time>2015-01-04T10:46:42Z</time>
      </trkpt>
      <trkpt lat="44.59829" lon="0.85827">
        <ele>187.59</ele>
        <time>2015-01-04T10:46:45Z</time>
      </trkpt>
      <trkpt lat="44.59829" lon="0.85848">
        <ele>188.56</ele>
        <time>2015-01-04T10:46:48Z</time>
      </trkpt>
      <trkpt lat="44.59834" lon="0.85922">
        <ele>189.52</ele>
        <time>2015-01-04T10:46:57Z</time>
      </trkpt>
      <trkpt lat="44.59846" lon="0.85957">
        <ele>189.52</ele>
        <time>2015-01-04T10:47:02Z</time>
      </trkpt>
      <trkpt lat="44.59862" lon="0.85997">
        <ele>188.08</ele>
        <time>2015-01-04T10:47:08Z</time>
      </trkpt>
      <trkpt lat="44.59868" lon="0.86019">
        <ele>185.67</ele>
        <time>2015-01-04T10:47:11Z</time>
      </trkpt>
      <trkpt lat="44.59871" lon="0.86063">
        <ele>183.27</ele>
        <time>2015-01-04T10:47:17Z</time>
      </trkpt>
      <trkpt lat="44.59877" lon="0.86087">
        <ele>181.83</ele>
        <time>2015-01-04T10:47:21Z</time>
      </trkpt>
      <trkpt lat="44.59885" lon="0.86136">
        <ele>183.75</ele>
        <time>2015-01-04T10:47:30Z</time>
      </trkpt>
      <trkpt lat="44.59885" lon="0.86153">
        <ele>184.23</ele>
        <time>2015-01-04T10:47:34Z</time>
      </trkpt>
      <trkpt lat="44.59903" lon="0.86176">
        <ele>185.19</ele>
        <time>2015-01-04T10:47:42Z</time>
      </trkpt>
      <trkpt lat="44.59912" lon="0.86179">
        <ele>186.15</ele>
        <time>2015-01-04T10:47:46Z</time>
      </trkpt>
      <trkpt lat="44.59948" lon="0.86181">
        <ele>190.48</ele>
        <time>2015-01-04T10:47:58Z</time>
      </trkpt>
      <trkpt lat="44.59983" lon="0.8617">
        <ele>192.4</ele>
        <time>2015-01-04T10:48:10Z</time>
      </trkpt>
      <trkpt lat="44.60028" lon="0.86174">
        <ele>192.88</ele>
        <time>2015-01-04T10:48:21Z</time>
      </trkpt>
      <trkpt lat="44.60074" lon="0.86168">
        <ele>193.36</ele>
        <time>2015-01-04T10:48:33Z</time>
      </trkpt>
      <trkpt lat="44.60082" lon="0.86164">
        <ele>192.4</ele>
        <time>2015-01-04T10:48:35Z</time>
      </trkpt>
      <trkpt lat="44.6017" lon="0.86132">
        <ele>183.75</ele>
        <time>2015-01-04T10:48:52Z</time>
      </trkpt>
      <trkpt lat="44.60176" lon="0.86129">
        <ele>183.27</ele>
        <time>2015-01-04T10:48:53Z</time>
      </trkpt>
      <trkpt lat="44.60199" lon="0.86138">
        <ele>181.35</ele>
        <time>2015-01-04T10:48:58Z</time>
      </trkpt>
      <trkpt lat="44.60218" lon="0.86169">
        <ele>178.94</ele>
        <time>2015-01-04T10:49:03Z</time>
      </trkpt>
      <trkpt lat="44.60252" lon="0.86205">
        <ele>180.38</ele>
        <time>2015-01-04T10:49:10Z</time>
      </trkpt>
      <trkpt lat="44.60265" lon="0.86226">
        <ele>179.42</ele>
        <time>2015-01-04T10:49:13Z</time>
      </trkpt>
      <trkpt lat="44.60286" lon="0.86276">
        <ele>175.1</ele>
        <time>2015-01-04T10:49:20Z</time>
      </trkpt>
      <trkpt lat="44.60298" lon="0.86301">
        <ele>172.21</ele>
        <time>2015-01-04T10:49:24Z</time>
      </trkpt>
      <trkpt lat="44.60305" lon="0.86338">
        <ele>167.89</ele>
        <time>2015-01-04T10:49:29Z</time>
      </trkpt>
      <trkpt lat="44.60294" lon="0.86377">
        <ele>162.6</ele>
        <time>2015-01-04T10:49:38Z</time>
      </trkpt>
      <trkpt lat="44.60291" lon="0.86387">
        <ele>162.6</ele>
        <time>2015-01-04T10:49:47Z</time>
      </trkpt>
      <trkpt lat="44.60286" lon="0.86396">
        <ele>165.48</ele>
        <time>2015-01-04T10:50:05Z</time>
      </trkpt>
      <trkpt lat="44.60282" lon="0.86404">
        <ele>165.48</ele>
        <time>2015-01-04T10:50:07Z</time>
      </trkpt>
      <trkpt lat="44.60264" lon="0.8644">
        <ele>165.48</ele>
        <time>2015-01-04T10:50:14Z</time>
      </trkpt>
      <trkpt lat="44.60256" lon="0.86478">
        <ele>164.52</ele>
        <time>2015-01-04T10:50:20Z</time>
      </trkpt>
      <trkpt lat="44.60263" lon="0.86496">
        <ele>164.52</ele>
        <time>2015-01-04T10:50:24Z</time>
      </trkpt>
      <trkpt lat="44.60289" lon="0.86505">
        <ele>166.45</ele>
        <time>2015-01-04T10:50:29Z</time>
      </trkpt>
      <trkpt lat="44.60305" lon="0.86527">
        <ele>167.89</ele>
        <time>2015-01-04T10:50:33Z</time>
      </trkpt>
      <trkpt lat="44.60323" lon="0.86564">
        <ele>169.81</ele>
        <time>2015-01-04T10:50:39Z</time>
      </trkpt>
      <trkpt lat="44.60328" lon="0.86598">
        <ele>168.85</ele>
        <time>2015-01-04T10:50:44Z</time>
      </trkpt>
      <trkpt lat="44.60329" lon="0.8662">
        <ele>168.85</ele>
        <time>2015-01-04T10:50:48Z</time>
      </trkpt>
      <trkpt lat="44.60326" lon="0.86679">
        <ele>167.41</ele>
        <time>2015-01-04T10:50:59Z</time>
      </trkpt>
      <trkpt lat="44.60318" lon="0.8671">
        <ele>166.45</ele>
        <time>2015-01-04T10:51:03Z</time>
      </trkpt>
      <trkpt lat="44.60314" lon="0.86745">
        <ele>164.52</ele>
        <time>2015-01-04T10:51:07Z</time>
      </trkpt>
      <trkpt lat="44.60316" lon="0.86759">
        <ele>164.04</ele>
        <time>2015-01-04T10:51:09Z</time>
      </trkpt>
      <trkpt lat="44.60319" lon="0.86821">
        <ele>168.85</ele>
        <time>2015-01-04T10:51:23Z</time>
      </trkpt>
      <trkpt lat="44.60321" lon="0.86873">
        <ele>177.5</ele>
        <time>2015-01-04T10:51:38Z</time>
      </trkpt>
      <trkpt lat="44.60321" lon="0.86913">
        <ele>183.75</ele>
        <time>2015-01-04T10:51:50Z</time>
      </trkpt>
      <trkpt lat="44.6032" lon="0.86951">
        <ele>188.08</ele>
        <time>2015-01-04T10:52:02Z</time>
      </trkpt>
      <trkpt lat="44.60317" lon="0.86962">
        <ele>188.08</ele>
        <time>2015-01-04T10:52:06Z</time>
      </trkpt>
      <trkpt lat="44.60316" lon="0.86966">
        <ele>187.59</ele>
        <time>2015-01-04T10:52:08Z</time>
      </trkpt>
      <trkpt lat="44.60311" lon="0.86967">
        <ele>186.15</ele>
        <time>2015-01-04T10:52:22Z</time>
      </trkpt>
      <trkpt lat="44.60309" lon="0.8697">
        <ele>184.71</ele>
        <time>2015-01-04T10:52:45Z</time>
      </trkpt>
      <trkpt lat="44.60285" lon="0.86983">
        <ele>182.79</ele>
        <time>2015-01-04T10:52:56Z</time>
      </trkpt>
      <trkpt lat="44.6023" lon="0.87008">
        <ele>177.5</ele>
        <time>2015-01-04T10:53:06Z</time>
      </trkpt>
      <trkpt lat="44.60207" lon="0.87015">
        <ele>176.06</ele>
        <time>2015-01-04T10:53:09Z</time>
      </trkpt>
      <trkpt lat="44.60181" lon="0.8703">
        <ele>173.66</ele>
        <time>2015-01-04T10:53:13Z</time>
      </trkpt>
      <trkpt lat="44.60152" lon="0.87055">
        <ele>172.21</ele>
        <time>2015-01-04T10:53:18Z</time>
      </trkpt>
      <trkpt lat="44.60084" lon="0.87083">
        <ele>169.81</ele>
        <time>2015-01-04T10:53:29Z</time>
      </trkpt>
      <trkpt lat="44.60026" lon="0.87098">
        <ele>162.12</ele>
        <time>2015-01-04T10:53:38Z</time>
      </trkpt>
      <trkpt lat="44.60023" lon="0.87123">
        <ele>159.24</ele>
        <time>2015-01-04T10:53:44Z</time>
      </trkpt>
      <trkpt lat="44.60032" lon="0.87239">
        <ele>155.39</ele>
        <time>2015-01-04T10:54:02Z</time>
      </trkpt>
      <trkpt lat="44.60034" lon="0.87287">
        <ele>156.83</ele>
        <time>2015-01-04T10:54:12Z</time>
      </trkpt>
      <trkpt lat="44.60025" lon="0.87298">
        <ele>157.79</ele>
        <time>2015-01-04T10:54:16Z</time>
      </trkpt>
      <trkpt lat="44.59987" lon="0.87284">
        <ele>162.12</ele>
        <time>2015-01-04T10:54:30Z</time>
      </trkpt>
      <trkpt lat="44.59965" lon="0.87249">
        <ele>164.04</ele>
        <time>2015-01-04T10:54:45Z</time>
      </trkpt>
      <trkpt lat="44.59933" lon="0.87211">
        <ele>164.52</ele>
        <time>2015-01-04T10:54:58Z</time>
      </trkpt>
      <trkpt lat="44.59907" lon="0.87192">
        <ele>165</ele>
        <time>2015-01-04T10:55:05Z</time>
      </trkpt>
      <trkpt lat="44.59886" lon="0.87193">
        <ele>165</ele>
        <time>2015-01-04T10:55:10Z</time>
      </trkpt>
      <trkpt lat="44.59871" lon="0.87203">
        <ele>165.48</ele>
        <time>2015-01-04T10:55:14Z</time>
      </trkpt>
      <trkpt lat="44.59838" lon="0.87261">
        <ele>165.96</ele>
        <time>2015-01-04T10:55:28Z</time>
      </trkpt>
      <trkpt lat="44.59833" lon="0.87272">
        <ele>165.96</ele>
        <time>2015-01-04T10:55:30Z</time>
      </trkpt>
      <trkpt lat="44.59787" lon="0.87337">
        <ele>168.85</ele>
        <time>2015-01-04T10:55:45Z</time>
      </trkpt>
      <trkpt lat="44.59775" lon="0.8736">
        <ele>169.81</ele>
        <time>2015-01-04T10:55:50Z</time>
      </trkpt>
      <trkpt lat="44.5973" lon="0.8743">
        <ele>171.73</ele>
        <time>2015-01-04T10:56:09Z</time>
      </trkpt>
      <trkpt lat="44.59703" lon="0.87467">
        <ele>175.58</ele>
        <time>2015-01-04T10:56:22Z</time>
      </trkpt>
      <trkpt lat="44.59666" lon="0.87512">
        <ele>181.35</ele>
        <time>2015-01-04T10:56:40Z</time>
      </trkpt>
      <trkpt lat="44.59638" lon="0.87545">
        <ele>180.38</ele>
        <time>2015-01-04T10:56:54Z</time>
      </trkpt>
      <trkpt lat="44.59621" lon="0.8759">
        <ele>181.83</ele>
        <time>2015-01-04T10:57:08Z</time>
      </trkpt>
      <trkpt lat="44.59605" lon="0.87641">
        <ele>185.19</ele>
        <time>2015-01-04T10:57:22Z</time>
      </trkpt>
      <trkpt lat="44.59585" lon="0.87693">
        <ele>192.4</ele>
        <time>2015-01-04T10:57:36Z</time>
      </trkpt>
      <trkpt lat="44.59575" lon="0.87736">
        <ele>195.77</ele>
        <time>2015-01-04T10:57:47Z</time>
      </trkpt>
      <trkpt lat="44.5956" lon="0.87791">
        <ele>207.78</ele>
        <time>2015-01-04T10:58:00Z</time>
      </trkpt>
      <trkpt lat="44.59547" lon="0.87839">
        <ele>215.47</ele>
        <time>2015-01-04T10:58:12Z</time>
      </trkpt>
      <trkpt lat="44.59544" lon="0.87865">
        <ele>216.43</ele>
        <time>2015-01-04T10:58:18Z</time>
      </trkpt>
      <trkpt lat="44.5954" lon="0.87874">
        <ele>214.51</ele>
        <time>2015-01-04T10:58:32Z</time>
      </trkpt>
      <trkpt lat="44.5954" lon="0.87874">
        <ele>210.19</ele>
        <time>2015-01-04T10:58:57Z</time>
      </trkpt>
      <trkpt lat="44.59539" lon="0.87874">
        <ele>209.7</ele>
        <time>2015-01-04T10:59:09Z</time>
      </trkpt>
      <trkpt lat="44.59512" lon="0.87855">
        <ele>202.49</ele>
        <time>2015-01-04T10:59:21Z</time>
      </trkpt>
      <trkpt lat="44.59479" lon="0.87838">
        <ele>199.61</ele>
        <time>2015-01-04T10:59:33Z</time>
      </trkpt>
      <trkpt lat="44.59445" lon="0.87836">
        <ele>202.49</ele>
        <time>2015-01-04T10:59:45Z</time>
      </trkpt>
      <trkpt lat="44.5941" lon="0.8783">
        <ele>202.01</ele>
        <time>2015-01-04T10:59:57Z</time>
      </trkpt>
      <trkpt lat="44.59379" lon="0.87816">
        <ele>201.53</ele>
        <time>2015-01-04T11:00:08Z</time>
      </trkpt>
      <trkpt lat="44.59339" lon="0.87838">
        <ele>201.53</ele>
        <time>2015-01-04T11:00:21Z</time>
      </trkpt>
      <trkpt lat="44.5933" lon="0.87845">
        <ele>199.61</ele>
        <time>2015-01-04T11:00:32Z</time>
      </trkpt>
      <trkpt lat="44.59331" lon="0.87845">
        <ele>195.77</ele>
        <time>2015-01-04T11:00:51Z</time>
      </trkpt>
      <trkpt lat="44.59327" lon="0.87844">
        <ele>194.8</ele>
        <time>2015-01-04T11:01:04Z</time>
      </trkpt>
      <trkpt lat="44.5932" lon="0.87848">
        <ele>195.77</ele>
        <time>2015-01-04T11:01:08Z</time>
      </trkpt>
      <trkpt lat="44.59285" lon="0.87876">
        <ele>195.28</ele>
        <time>2015-01-04T11:01:18Z</time>
      </trkpt>
      <trkpt lat="44.5925" lon="0.87916">
        <ele>190</ele>
        <time>2015-01-04T11:01:26Z</time>
      </trkpt>
      <trkpt lat="44.59245" lon="0.87925">
        <ele>188.56</ele>
        <time>2015-01-04T11:01:28Z</time>
      </trkpt>
      <trkpt lat="44.59228" lon="0.87959">
        <ele>185.67</ele>
        <time>2015-01-04T11:01:34Z</time>
      </trkpt>
      <trkpt lat="44.59212" lon="0.87979">
        <ele>184.71</ele>
        <time>2015-01-04T11:01:38Z</time>
      </trkpt>
      <trkpt lat="44.59191" lon="0.88008">
        <ele>182.79</ele>
        <time>2015-01-04T11:01:43Z</time>
      </trkpt>
      <trkpt lat="44.59158" lon="0.88052">
        <ele>178.94</ele>
        <time>2015-01-04T11:01:49Z</time>
      </trkpt>
      <trkpt lat="44.5912" lon="0.88125">
        <ele>173.17</ele>
        <time>2015-01-04T11:01:58Z</time>
      </trkpt>
      <trkpt lat="44.59098" lon="0.88148">
        <ele>170.77</ele>
        <time>2015-01-04T11:02:02Z</time>
      </trkpt>
      <trkpt lat="44.59082" lon="0.88157">
        <ele>169.81</ele>
        <time>2015-01-04T11:02:05Z</time>
      </trkpt>
      <trkpt lat="44.5906" lon="0.88141">
        <ele>168.37</ele>
        <time>2015-01-04T11:02:11Z</time>
      </trkpt>
      <trkpt lat="44.59041" lon="0.88125">
        <ele>168.37</ele>
        <time>2015-01-04T11:02:16Z</time>
      </trkpt>
      <trkpt lat="44.59023" lon="0.88135">
        <ele>168.85</ele>
        <time>2015-01-04T11:02:21Z</time>
      </trkpt>
      <trkpt lat="44.58992" lon="0.88162">
        <ele>164.52</ele>
        <time>2015-01-04T11:02:28Z</time>
      </trkpt>
      <trkpt lat="44.58995" lon="0.8818">
        <ele>162.12</ele>
        <time>2015-01-04T11:02:33Z</time>
      </trkpt>
      <trkpt lat="44.59022" lon="0.88212">
        <ele>160.2</ele>
        <time>2015-01-04T11:02:41Z</time>
      </trkpt>
      <trkpt lat="44.5904" lon="0.88251">
        <ele>156.83</ele>
        <time>2015-01-04T11:02:49Z</time>
      </trkpt>
      <trkpt lat="44.59044" lon="0.88253">
        <ele>156.83</ele>
        <time>2015-01-04T11:02:50Z</time>
      </trkpt>
      <trkpt lat="44.5912" lon="0.88286">
        <ele>152.99</ele>
        <time>2015-01-04T11:03:03Z</time>
      </trkpt>
      <trkpt lat="44.59131" lon="0.88289">
        <ele>152.99</ele>
        <time>2015-01-04T11:03:05Z</time>
      </trkpt>
      <trkpt lat="44.59166" lon="0.88293">
        <ele>155.87</ele>
        <time>2015-01-04T11:03:15Z</time>
      </trkpt>
      <trkpt lat="44.59186" lon="0.88297">
        <ele>155.87</ele>
        <time>2015-01-04T11:03:21Z</time>
      </trkpt>
      <trkpt lat="44.59233" lon="0.88306">
        <ele>155.39</ele>
        <time>2015-01-04T11:03:30Z</time>
      </trkpt>
      <trkpt lat="44.59253" lon="0.88319">
        <ele>156.83</ele>
        <time>2015-01-04T11:03:34Z</time>
      </trkpt>
      <trkpt lat="44.59294" lon="0.88362">
        <ele>158.27</ele>
        <time>2015-01-04T11:03:43Z</time>
      </trkpt>
      <trkpt lat="44.5931" lon="0.88383">
        <ele>156.83</ele>
        <time>2015-01-04T11:03:47Z</time>
      </trkpt>
      <trkpt lat="44.59329" lon="0.88502">
        <ele>157.79</ele>
        <time>2015-01-04T11:04:06Z</time>
      </trkpt>
      <trkpt lat="44.5933" lon="0.88546">
        <ele>162.12</ele>
        <time>2015-01-04T11:04:19Z</time>
      </trkpt>
      <trkpt lat="44.5934" lon="0.88565">
        <ele>166.93</ele>
        <time>2015-01-04T11:04:29Z</time>
      </trkpt>
      <trkpt lat="44.59355" lon="0.8859">
        <ele>170.77</ele>
        <time>2015-01-04T11:04:44Z</time>
      </trkpt>
      <trkpt lat="44.59368" lon="0.88619">
        <ele>174.14</ele>
        <time>2015-01-04T11:04:58Z</time>
      </trkpt>
      <trkpt lat="44.59379" lon="0.88648">
        <ele>177.02</ele>
        <time>2015-01-04T11:05:11Z</time>
      </trkpt>
      <trkpt lat="44.59396" lon="0.88681">
        <ele>177.5</ele>
        <time>2015-01-04T11:05:22Z</time>
      </trkpt>
      <trkpt lat="44.59414" lon="0.88713">
        <ele>176.06</ele>
        <time>2015-01-04T11:05:34Z</time>
      </trkpt>
      <trkpt lat="44.59434" lon="0.88754">
        <ele>176.06</ele>
        <time>2015-01-04T11:05:46Z</time>
      </trkpt>
      <trkpt lat="44.59442" lon="0.88764">
        <ele>175.1</ele>
        <time>2015-01-04T11:05:49Z</time>
      </trkpt>
      <trkpt lat="44.59456" lon="0.88772">
        <ele>174.62</ele>
        <time>2015-01-04T11:05:52Z</time>
      </trkpt>
      <trkpt lat="44.59468" lon="0.88782">
        <ele>174.14</ele>
        <time>2015-01-04T11:05:55Z</time>
      </trkpt>
      <trkpt lat="44.5949" lon="0.88816">
        <ele>171.25</ele>
        <time>2015-01-04T11:06:08Z</time>
      </trkpt>
      <trkpt lat="44.59517" lon="0.8885">
        <ele>174.14</ele>
        <time>2015-01-04T11:06:22Z</time>
      </trkpt>
      <trkpt lat="44.59538" lon="0.88888">
        <ele>175.1</ele>
        <time>2015-01-04T11:06:37Z</time>
      </trkpt>
      <trkpt lat="44.59556" lon="0.88916">
        <ele>177.02</ele>
        <time>2015-01-04T11:06:52Z</time>
      </trkpt>
      <trkpt lat="44.5957" lon="0.88939">
        <ele>178.94</ele>
        <time>2015-01-04T11:07:03Z</time>
      </trkpt>
      <trkpt lat="44.59596" lon="0.88989">
        <ele>180.87</ele>
        <time>2015-01-04T11:07:23Z</time>
      </trkpt>
      <trkpt lat="44.59622" lon="0.89043">
        <ele>180.38</ele>
        <time>2015-01-04T11:07:39Z</time>
      </trkpt>
      <trkpt lat="44.59633" lon="0.89065">
        <ele>180.38</ele>
        <time>2015-01-04T11:07:50Z</time>
      </trkpt>
      <trkpt lat="44.59634" lon="0.89066">
        <ele>178.94</ele>
        <time>2015-01-04T11:08:15Z</time>
      </trkpt>
      <trkpt lat="44.59633" lon="0.89067">
        <ele>181.83</ele>
        <time>2015-01-04T11:08:33Z</time>
      </trkpt>
      <trkpt lat="44.59633" lon="0.89066">
        <ele>181.83</ele>
        <time>2015-01-04T11:08:47Z</time>
      </trkpt>
      <trkpt lat="44.59636" lon="0.89077">
        <ele>180.87</ele>
        <time>2015-01-04T11:08:51Z</time>
      </trkpt>
      <trkpt lat="44.59663" lon="0.89118">
        <ele>175.1</ele>
        <time>2015-01-04T11:08:58Z</time>
      </trkpt>
      <trkpt lat="44.59749" lon="0.89188">
        <ele>166.93</ele>
        <time>2015-01-04T11:09:08Z</time>
      </trkpt>
      <trkpt lat="44.59776" lon="0.89226">
        <ele>166.93</ele>
        <time>2015-01-04T11:09:12Z</time>
      </trkpt>
      <trkpt lat="44.5985" lon="0.89323">
        <ele>166.93</ele>
        <time>2015-01-04T11:09:23Z</time>
      </trkpt>
      <trkpt lat="44.59933" lon="0.89415">
        <ele>172.69</ele>
        <time>2015-01-04T11:09:36Z</time>
      </trkpt>
      <trkpt lat="44.59974" lon="0.89461">
        <ele>172.69</ele>
        <time>2015-01-04T11:09:45Z</time>
      </trkpt>
      <trkpt lat="44.60004" lon="0.89472">
        <ele>171.25</ele>
        <time>2015-01-04T11:09:50Z</time>
      </trkpt>
      <trkpt lat="44.60031" lon="0.89475">
        <ele>170.77</ele>
        <time>2015-01-04T11:09:54Z</time>
      </trkpt>
      <trkpt lat="44.60052" lon="0.89487">
        <ele>169.81</ele>
        <time>2015-01-04T11:09:58Z</time>
      </trkpt>
      <trkpt lat="44.60043" lon="0.89497">
        <ele>167.89</ele>
        <time>2015-01-04T11:10:05Z</time>
      </trkpt>
      <trkpt lat="44.60032" lon="0.89505">
        <ele>167.41</ele>
        <time>2015-01-04T11:10:10Z</time>
      </trkpt>
      <trkpt lat="44.60032" lon="0.8951">
        <ele>168.85</ele>
        <time>2015-01-04T11:10:23Z</time>
      </trkpt>
    </trkseg>
  </trk>
</gpx>